PWSweather.com
Personal Weather Stations
Station Observations
AC5JC
Greenleaf Peninsula, Waco, Waco, TX 76710

Greenleaf Peninsula, WacoWaco, TX 76710

Lat: 31.565, Lon: -97.198

Elevation: 570

Station Type: Ambient WS-1400IP

http://ac5jc.dyndns.org

Latest ConditionsUpdated 11:03:00 PM CDT Tuesday, Aug 20, 2019
Currently Today's Max Today's Min Today's Average
Temperature 85.5°F29.7°C 98.9°F37.2°C 79.5°F26.4°C 88.7°F31.5°C
Dew Point 71.9°F22.2°C 74.4°F23.6°C 62.4°F16.9°C 69.8°F21.0°C
Winds 2.2 mph SSE3.5 kmh SSE 11.8 mph -19.0 kmh - - 3.4 mph 5.5 kmh
Wind Gusts 4.9 mph7.9 kmh 20.1 mph32.3 kmh - -
Humidity 64% 82% 31% 56%
Pressure 29.98 in1015.2 mb 30.02 in1016.6 mb 29.91 in1012.9 mb -
Hour Temp Dew Point Humidity Winds Wind Gusts Pressure Precip Precip Rate Daily Precip Total
11:03 PM 85.5°F29.7°C 71.9°F22.2°C 64% 2.2 mph SSE3.5 kmh SSE 4.9 mph7.9 kmh 29.98 in1015.2 mb 0.00 in0.0 mm 0.00 in0.0 mm 0.00 in0.0 mm
11:00 PM 85.6°F29.8°C 71.9°F22.2°C 64% 3.2 mph SSE5.1 kmh SSE 7.6 mph12.2 kmh 29.98 in1015.2 mb 0.00 in0.0 mm 0.00 in0.0 mm 0.00 in0.0 mm
10:57 PM 85.8°F29.9°C 71.7°F22.1°C 63% 2.2 mph SSE3.5 kmh SSE 4.9 mph7.9 kmh 29.98 in1015.2 mb 0.00 in0.0 mm 0.00 in0.0 mm 0.00 in0.0 mm
10:54 PM 85.8°F29.9°C 71.5°F21.9°C 62% 1.9 mph SE3.1 kmh SE 4.9 mph7.9 kmh 29.98 in1015.2 mb 0.00 in0.0 mm 0.00 in0.0 mm 0.00 in0.0 mm
10:51 PM 85.9°F29.9°C 71.6°F22.0°C 63% 2.9 mph SSE4.7 kmh SSE 7.6 mph12.2 kmh 29.97 in1014.9 mb 0.00 in0.0 mm 0.00 in0.0 mm 0.00 in0.0 mm
10:48 PM 86.0°F30.0°C 71.4°F21.9°C 62% 5.2 mph SE8.4 kmh SE 10.1 mph16.3 kmh 29.97 in1014.9 mb 0.00 in0.0 mm 0.00 in0.0 mm 0.00 in0.0 mm
10:45 PM 86.2°F30.1°C 71.6°F22.0°C 62% 5.9 mph SE9.5 kmh SE 10.1 mph16.3 kmh 29.97 in1014.9 mb 0.00 in0.0 mm 0.00 in0.0 mm 0.00 in0.0 mm
10:42 PM 86.4°F30.2°C 71.8°F22.1°C 62% 2.6 mph SE4.2 kmh SE 4.9 mph7.9 kmh 29.98 in1015.2 mb 0.00 in0.0 mm 0.00 in0.0 mm 0.00 in0.0 mm
10:39 PM 86.4°F30.2°C 71.8°F22.1°C 62% 6.2 mph SSE10.0 kmh SSE 10.1 mph16.3 kmh 29.97 in1014.9 mb 0.00 in0.0 mm 0.00 in0.0 mm 0.00 in0.0 mm
10:36 PM 86.4°F30.2°C 71.9°F22.2°C 62% 4.2 mph SSE6.8 kmh SSE 10.1 mph16.3 kmh 29.97 in1014.9 mb 0.00 in0.0 mm 0.00 in0.0 mm 0.00 in0.0 mm
10:33 PM 86.5°F30.3°C 71.5°F21.9°C 61% 4.8 mph S7.7 kmh S 10.1 mph16.3 kmh 29.97 in1014.9 mb 0.00 in0.0 mm 0.00 in0.0 mm 0.00 in0.0 mm
10:30 PM 86.5°F30.3°C 71.4°F21.9°C 61% 6.2 mph SE10.0 kmh SE 10.1 mph16.3 kmh 29.97 in1014.9 mb 0.00 in0.0 mm 0.00 in0.0 mm 0.00 in0.0 mm
10:27 PM 86.5°F30.3°C 71.4°F21.9°C 61% 6.6 mph S10.6 kmh S 7.6 mph12.2 kmh 29.97 in1014.9 mb 0.00 in0.0 mm 0.00 in0.0 mm 0.00 in0.0 mm
10:24 PM 86.5°F30.3°C 71.8°F22.1°C 62% 8.0 mph S12.9 kmh S 12.5 mph20.1 kmh 29.97 in1014.9 mb 0.00 in0.0 mm 0.00 in0.0 mm 0.00 in0.0 mm
10:21 PM 86.5°F30.3°C 71.7°F22.1°C 62% 4.5 mph SSE7.2 kmh SSE 7.6 mph12.2 kmh 29.97 in1014.9 mb 0.00 in0.0 mm 0.00 in0.0 mm 0.00 in0.0 mm
10:18 PM 86.5°F30.3°C 71.4°F21.9°C 61% 5.3 mph S8.5 kmh S 10.1 mph16.3 kmh 29.97 in1014.9 mb 0.00 in0.0 mm 0.00 in0.0 mm 0.00 in0.0 mm
10:15 PM 86.7°F30.4°C 71.6°F22.0°C 61% 7.9 mph S12.7 kmh S 12.5 mph20.1 kmh 29.96 in1014.6 mb 0.00 in0.0 mm 0.00 in0.0 mm 0.00 in0.0 mm
10:12 PM 86.7°F30.4°C 71.6°F22.0°C 61% 5.6 mph SSE9.0 kmh SSE 7.6 mph12.2 kmh 29.96 in1014.6 mb 0.00 in0.0 mm 0.00 in0.0 mm 0.00 in0.0 mm
10:09 PM 86.9°F30.5°C 71.8°F22.1°C 61% 7.1 mph SSE11.4 kmh SSE 10.1 mph16.3 kmh 29.97 in1014.9 mb 0.00 in0.0 mm 0.00 in0.0 mm 0.00 in0.0 mm
10:06 PM 86.9°F30.5°C 71.8°F22.1°C 61% 5.9 mph SSE9.5 kmh SSE 10.1 mph16.3 kmh 29.96 in1014.6 mb 0.00 in0.0 mm 0.00 in0.0 mm 0.00 in0.0 mm
10:03 PM 86.9°F30.5°C 71.8°F22.1°C 61% 7.7 mph S12.4 kmh S 10.1 mph16.3 kmh 29.96 in1014.6 mb 0.00 in0.0 mm 0.00 in0.0 mm 0.00 in0.0 mm
10:00 PM 87.1°F30.6°C 72.0°F22.2°C 61% 5.9 mph SSE9.5 kmh SSE 10.1 mph16.3 kmh 29.96 in1014.6 mb 0.00 in0.0 mm 0.00 in0.0 mm 0.00 in0.0 mm
09:57 PM 87.1°F30.6°C 72.0°F22.2°C 61% 7.8 mph S12.6 kmh S 12.5 mph20.1 kmh 29.96 in1014.6 mb 0.00 in0.0 mm 0.00 in0.0 mm 0.00 in0.0 mm
09:54 PM 87.2°F30.7°C 72.1°F22.3°C 61% 4.6 mph S7.4 kmh S 7.6 mph12.2 kmh 29.96 in1014.6 mb 0.00 in0.0 mm 0.00 in0.0 mm 0.00 in0.0 mm
09:51 PM 87.3°F30.7°C 72.2°F22.3°C 61% 5.4 mph S8.7 kmh S 10.1 mph16.3 kmh 29.96 in1014.6 mb 0.00 in0.0 mm 0.00 in0.0 mm 0.00 in0.0 mm
09:48 PM 87.3°F30.7°C 72.2°F22.3°C 61% 8.7 mph SSE14.0 kmh SSE 15.0 mph24.1 kmh 29.96 in1014.6 mb 0.00 in0.0 mm 0.00 in0.0 mm 0.00 in0.0 mm
09:45 PM 87.4°F30.8°C 72.2°F22.3°C 61% 7.6 mph S12.2 kmh S 15.0 mph24.1 kmh 29.95 in1014.2 mb 0.00 in0.0 mm 0.00 in0.0 mm 0.00 in0.0 mm
09:42 PM 87.5°F30.8°C 72.0°F22.2°C 60% 9.2 mph SSE14.8 kmh SSE 15.0 mph24.1 kmh 29.95 in1014.2 mb 0.00 in0.0 mm 0.00 in0.0 mm 0.00 in0.0 mm
09:39 PM 87.6°F30.9°C 72.0°F22.2°C 60% 8.1 mph SSE13.0 kmh SSE 15.0 mph24.1 kmh 29.95 in1014.2 mb 0.00 in0.0 mm 0.00 in0.0 mm 0.00 in0.0 mm
09:36 PM 87.6°F30.9°C 72.0°F22.2°C 60% 7.3 mph SSE11.7 kmh SSE 12.5 mph20.1 kmh 29.95 in1014.2 mb 0.00 in0.0 mm 0.00 in0.0 mm 0.00 in0.0 mm
09:33 PM 87.8°F31.0°C 71.7°F22.1°C 59% 6.0 mph SE9.7 kmh SE 7.6 mph12.2 kmh 29.95 in1014.2 mb 0.00 in0.0 mm 0.00 in0.0 mm 0.00 in0.0 mm
09:30 PM 87.9°F31.1°C 71.7°F22.1°C 59% 5.5 mph SSE8.9 kmh SSE 10.1 mph16.3 kmh 29.95 in1014.2 mb 0.00 in0.0 mm 0.00 in0.0 mm 0.00 in0.0 mm
09:27 PM 88.0°F31.1°C 71.8°F22.1°C 59% 10.5 mph SSE16.9 kmh SSE 15.0 mph24.1 kmh 29.94 in1013.9 mb 0.00 in0.0 mm 0.00 in0.0 mm 0.00 in0.0 mm
09:24 PM 88.0°F31.1°C 71.8°F22.1°C 59% 7.5 mph SSE12.1 kmh SSE 15.0 mph24.1 kmh 29.94 in1013.9 mb 0.00 in0.0 mm 0.00 in0.0 mm 0.00 in0.0 mm
09:21 PM 88.0°F31.1°C 71.8°F22.1°C 59% 6.1 mph SE9.8 kmh SE 10.1 mph16.3 kmh 29.95 in1014.2 mb 0.00 in0.0 mm 0.00 in0.0 mm 0.00 in0.0 mm
09:18 PM 88.2°F31.2°C 71.6°F22.0°C 58% 4.5 mph SSE7.2 kmh SSE 7.6 mph12.2 kmh 29.94 in1013.9 mb 0.00 in0.0 mm 0.00 in0.0 mm 0.00 in0.0 mm
09:15 PM 88.2°F31.2°C 71.6°F22.0°C 58% 9.6 mph SE15.4 kmh SE 15.0 mph24.1 kmh 29.94 in1013.9 mb 0.00 in0.0 mm 0.00 in0.0 mm 0.00 in0.0 mm
09:12 PM 88.3°F31.3°C 71.6°F22.0°C 58% 6.7 mph S10.8 kmh S 10.1 mph16.3 kmh 29.94 in1013.9 mb 0.00 in0.0 mm 0.00 in0.0 mm 0.00 in0.0 mm
09:09 PM 88.4°F31.3°C 71.7°F22.1°C 58% 6.8 mph SE10.9 kmh SE 10.1 mph16.3 kmh 29.94 in1013.9 mb 0.00 in0.0 mm 0.00 in0.0 mm 0.00 in0.0 mm
09:06 PM 88.7°F31.5°C 71.9°F22.2°C 58% 6.5 mph ESE10.5 kmh ESE 10.1 mph16.3 kmh 29.94 in1013.9 mb 0.00 in0.0 mm 0.00 in0.0 mm 0.00 in0.0 mm
09:03 PM 88.7°F31.5°C 71.6°F22.0°C 57% 5.5 mph SE8.9 kmh SE 10.1 mph16.3 kmh 29.93 in1013.5 mb 0.00 in0.0 mm 0.00 in0.0 mm 0.00 in0.0 mm
09:00 PM 88.7°F31.5°C 71.5°F21.9°C 57% 10.6 mph SSE17.1 kmh SSE 17.4 mph28.0 kmh 29.93 in1013.5 mb 0.00 in0.0 mm 0.00 in0.0 mm 0.00 in0.0 mm
08:57 PM 88.7°F31.5°C 71.5°F21.9°C 57% 7.8 mph SE12.6 kmh SE 17.4 mph28.0 kmh 29.93 in1013.5 mb 0.00 in0.0 mm 0.00 in0.0 mm 0.00 in0.0 mm
08:54 PM 88.8°F31.6°C 71.6°F22.0°C 57% 7.4 mph S11.9 kmh S 12.5 mph20.1 kmh 29.93 in1013.5 mb 0.00 in0.0 mm 0.00 in0.0 mm 0.00 in0.0 mm
08:51 PM 89.1°F31.7°C 71.8°F22.1°C 57% 7.6 mph SE12.2 kmh SE 12.5 mph20.1 kmh 29.93 in1013.5 mb 0.00 in0.0 mm 0.00 in0.0 mm 0.00 in0.0 mm
08:48 PM 89.1°F31.7°C 71.8°F22.1°C 57% 9.1 mph S14.6 kmh S 12.5 mph20.1 kmh 29.93 in1013.5 mb 0.00 in0.0 mm 0.00 in0.0 mm 0.00 in0.0 mm
08:45 PM 89.1°F31.7°C 71.8°F22.1°C 57% 11.4 mph SSE18.3 kmh SSE 15.0 mph24.1 kmh 29.93 in1013.5 mb 0.00 in0.0 mm 0.00 in0.0 mm 0.00 in0.0 mm
08:42 PM 89.4°F31.9°C 71.6°F22.0°C 56% 11.8 mph S19.0 kmh S 20.1 mph32.3 kmh 29.93 in1013.5 mb 0.00 in0.0 mm 0.00 in0.0 mm 0.00 in0.0 mm
08:39 PM 89.5°F31.9°C 71.4°F21.9°C 56% 10.4 mph SE16.7 kmh SE 17.4 mph28.0 kmh 29.93 in1013.5 mb 0.00 in0.0 mm 0.00 in0.0 mm 0.00 in0.0 mm
08:36 PM 89.8°F32.1°C 70.5°F21.4°C 53% 7.6 mph S12.2 kmh S 12.5 mph20.1 kmh 29.93 in1013.5 mb 0.00 in0.0 mm 0.00 in0.0 mm 0.00 in0.0 mm
08:33 PM 90.2°F32.3°C 69.8°F21.0°C 52% 8.6 mph SE13.8 kmh SE 10.1 mph16.3 kmh 29.93 in1013.5 mb 0.00 in0.0 mm 0.00 in0.0 mm 0.00 in0.0 mm
08:30 PM 91.1°F32.8°C 69.2°F20.7°C 49% 11.8 mph SE19.0 kmh SE 17.4 mph28.0 kmh 29.93 in1013.5 mb 0.00 in0.0 mm 0.00 in0.0 mm 0.00 in0.0 mm
08:27 PM 92.2°F33.4°C 66.1°F18.9°C 42% 8.0 mph SSE12.9 kmh SSE 15.0 mph24.1 kmh 29.92 in1013.2 mb 0.00 in0.0 mm 0.00 in0.0 mm 0.00 in0.0 mm
08:24 PM 92.5°F33.6°C 66.0°F18.9°C 42% 7.9 mph SSE12.7 kmh SSE 12.5 mph20.1 kmh 29.92 in1013.2 mb 0.00 in0.0 mm 0.00 in0.0 mm 0.00 in0.0 mm
08:21 PM 92.5°F33.6°C 65.5°F18.6°C 41% 3.8 mph SSE6.1 kmh SSE 4.9 mph7.9 kmh 29.92 in1013.2 mb 0.00 in0.0 mm 0.00 in0.0 mm 0.00 in0.0 mm
08:18 PM 92.6°F33.7°C 65.4°F18.6°C 41% 4.0 mph SSE6.4 kmh SSE 4.9 mph7.9 kmh 29.92 in1013.2 mb 0.00 in0.0 mm 0.00 in0.0 mm 0.00 in0.0 mm
08:15 PM 92.6°F33.7°C 65.4°F18.6°C 41% 4.8 mph SSE7.7 kmh SSE 7.6 mph12.2 kmh 29.92 in1013.2 mb 0.00 in0.0 mm 0.00 in0.0 mm 0.00 in0.0 mm
08:12 PM 92.7°F33.7°C 65.5°F18.6°C 41% 2.0 mph SSE3.2 kmh SSE 2.5 mph4.0 kmh 29.92 in1013.2 mb 0.00 in0.0 mm 0.00 in0.0 mm 0.00 in0.0 mm
08:09 PM 93.0°F33.9°C 65.7°F18.7°C 41% 4.7 mph SE7.6 kmh SE 4.9 mph7.9 kmh 29.92 in1013.2 mb 0.00 in0.0 mm 0.00 in0.0 mm 0.00 in0.0 mm
08:06 PM 93.1°F33.9°C 65.3°F18.5°C 40% 4.2 mph SSE6.8 kmh SSE 7.6 mph12.2 kmh 29.92 in1013.2 mb 0.00 in0.0 mm 0.00 in0.0 mm 0.00 in0.0 mm
08:03 PM 93.4°F34.1°C 64.7°F18.2°C 39% 2.9 mph ESE4.7 kmh ESE 4.9 mph7.9 kmh 29.92 in1013.2 mb 0.00 in0.0 mm 0.00 in0.0 mm 0.00 in0.0 mm
08:00 PM 93.4°F34.1°C 64.7°F18.2°C 39% 4.0 mph SSE6.4 kmh SSE 7.6 mph12.2 kmh 29.92 in1013.2 mb 0.00 in0.0 mm 0.00 in0.0 mm 0.00 in0.0 mm
07:57 PM 93.4°F34.1°C 64.7°F18.2°C 39% 2.7 mph SSE4.3 kmh SSE 4.9 mph7.9 kmh 29.92 in1013.2 mb 0.00 in0.0 mm 0.00 in0.0 mm 0.00 in0.0 mm
07:54 PM 93.4°F34.1°C 64.7°F18.2°C 39% 4.4 mph SE7.1 kmh SE 7.6 mph12.2 kmh 29.92 in1013.2 mb 0.00 in0.0 mm 0.00 in0.0 mm 0.00 in0.0 mm
07:51 PM 93.7°F34.3°C 64.4°F18.0°C 38% 1.6 mph SSE2.6 kmh SSE 4.9 mph7.9 kmh 29.92 in1013.2 mb 0.00 in0.0 mm 0.00 in0.0 mm 0.00 in0.0 mm
07:48 PM 93.7°F34.3°C 64.4°F18.0°C 38% 2.4 mph SE3.9 kmh SE 4.9 mph7.9 kmh 29.92 in1013.2 mb 0.00 in0.0 mm 0.00 in0.0 mm 0.00 in0.0 mm
07:45 PM 93.7°F34.3°C 64.2°F17.9°C 38% 3.1 mph SE5.0 kmh SE 4.9 mph7.9 kmh 29.91 in1012.9 mb 0.00 in0.0 mm 0.00 in0.0 mm 0.00 in0.0 mm
07:42 PM 93.9°F34.4°C 64.4°F18.0°C 38% 2.0 mph SSE3.2 kmh SSE 4.9 mph7.9 kmh 29.91 in1012.9 mb 0.00 in0.0 mm 0.00 in0.0 mm 0.00 in0.0 mm
07:39 PM 93.9°F34.4°C 64.4°F18.0°C 38% 3.9 mph S6.3 kmh S 7.6 mph12.2 kmh 29.92 in1013.2 mb 0.00 in0.0 mm 0.00 in0.0 mm 0.00 in0.0 mm
07:36 PM 93.9°F34.4°C 64.4°F18.0°C 38% 3.2 mph SE5.1 kmh SE 4.9 mph7.9 kmh 29.91 in1012.9 mb 0.00 in0.0 mm 0.00 in0.0 mm 0.00 in0.0 mm
07:33 PM 94.4°F34.7°C 64.4°F18.0°C 38% 2.5 mph ESE4.0 kmh ESE 4.9 mph7.9 kmh 29.91 in1012.9 mb 0.00 in0.0 mm 0.00 in0.0 mm 0.00 in0.0 mm
07:30 PM 94.5°F34.7°C 64.2°F17.9°C 37% 4.2 mph SSE6.8 kmh SSE 7.6 mph12.2 kmh 29.91 in1012.9 mb 0.00 in0.0 mm 0.00 in0.0 mm 0.00 in0.0 mm
07:27 PM 94.6°F34.8°C 64.3°F17.9°C 37% 2.4 mph S3.9 kmh S 4.9 mph7.9 kmh 29.92 in1013.2 mb 0.00 in0.0 mm 0.00 in0.0 mm 0.00 in0.0 mm
07:24 PM 94.8°F34.9°C 64.2°F17.9°C 37% 4.7 mph SSE7.6 kmh SSE 7.6 mph12.2 kmh 29.91 in1012.9 mb 0.00 in0.0 mm 0.00 in0.0 mm 0.00 in0.0 mm
07:21 PM 94.8°F34.9°C 64.4°F18.0°C 37% 2.2 mph SE3.5 kmh SE 4.9 mph7.9 kmh 29.92 in1013.2 mb 0.00 in0.0 mm 0.00 in0.0 mm 0.00 in0.0 mm
07:18 PM 94.8°F34.9°C 64.2°F17.9°C 37% 0.7 mph SE1.1 kmh SE 2.5 mph4.0 kmh 29.91 in1012.9 mb 0.00 in0.0 mm 0.00 in0.0 mm 0.00 in0.0 mm
07:15 PM 95.0°F35.0°C 64.0°F17.8°C 36% 2.0 mph ESE3.2 kmh ESE 4.9 mph7.9 kmh 29.91 in1012.9 mb 0.00 in0.0 mm 0.00 in0.0 mm 0.00 in0.0 mm
07:12 PM 95.2°F35.1°C 64.0°F17.8°C 36% 2.8 mph SE4.5 kmh SE 4.9 mph7.9 kmh 29.92 in1013.2 mb 0.00 in0.0 mm 0.00 in0.0 mm 0.00 in0.0 mm
07:09 PM 95.2°F35.1°C 64.0°F17.8°C 36% 1.4 mph S2.3 kmh S 2.5 mph4.0 kmh 29.92 in1013.2 mb 0.00 in0.0 mm 0.00 in0.0 mm 0.00 in0.0 mm
07:06 PM 95.2°F35.1°C 63.4°F17.4°C 35% 3.3 mph ESE5.3 kmh ESE 4.9 mph7.9 kmh 29.92 in1013.2 mb 0.00 in0.0 mm 0.00 in0.0 mm 0.00 in0.0 mm
07:03 PM 95.2°F35.1°C 63.2°F17.3°C 35% 3.2 mph SE5.1 kmh SE 7.6 mph12.2 kmh 29.92 in1013.2 mb 0.00 in0.0 mm 0.00 in0.0 mm 0.00 in0.0 mm
07:00 PM 95.4°F35.2°C 63.3°F17.4°C 35% 4.2 mph ESE6.8 kmh ESE 7.6 mph12.2 kmh 29.92 in1013.2 mb 0.00 in0.0 mm 0.00 in0.0 mm 0.00 in0.0 mm
06:57 PM 95.4°F35.2°C 63.8°F17.7°C 36% 3.3 mph SE5.3 kmh SE 4.9 mph7.9 kmh 29.92 in1013.2 mb 0.00 in0.0 mm 0.00 in0.0 mm 0.00 in0.0 mm
06:54 PM 95.4°F35.2°C 63.3°F17.4°C 35% 4.0 mph SE6.4 kmh SE 7.6 mph12.2 kmh 29.92 in1013.2 mb 0.00 in0.0 mm 0.00 in0.0 mm 0.00 in0.0 mm
06:51 PM 95.5°F35.3°C 63.4°F17.4°C 35% 3.3 mph SSE5.3 kmh SSE 4.9 mph7.9 kmh 29.92 in1013.2 mb 0.00 in0.0 mm 0.00 in0.0 mm 0.00 in0.0 mm
06:48 PM 95.7°F35.4°C 63.6°F17.6°C 35% 3.6 mph SE5.8 kmh SE 7.6 mph12.2 kmh 29.92 in1013.2 mb 0.00 in0.0 mm 0.00 in0.0 mm 0.00 in0.0 mm
06:45 PM 95.7°F35.4°C 63.6°F17.6°C 35% 2.8 mph SE4.5 kmh SE 4.9 mph7.9 kmh 29.92 in1013.2 mb 0.00 in0.0 mm 0.00 in0.0 mm 0.00 in0.0 mm
06:42 PM 95.9°F35.5°C 64.2°F17.9°C 36% 1.7 mph SE2.7 kmh SE 4.9 mph7.9 kmh 29.91 in1012.9 mb 0.00 in0.0 mm 0.00 in0.0 mm 0.00 in0.0 mm
06:39 PM 96.0°F35.6°C 63.9°F17.7°C 35% 5.8 mph SE9.3 kmh SE 10.1 mph16.3 kmh 29.92 in1013.2 mb 0.00 in0.0 mm 0.00 in0.0 mm 0.00 in0.0 mm
06:36 PM 96.1°F35.6°C 64.0°F17.8°C 35% 5.7 mph E9.2 kmh E 7.6 mph12.2 kmh 29.92 in1013.2 mb 0.00 in0.0 mm 0.00 in0.0 mm 0.00 in0.0 mm
06:33 PM 96.1°F35.6°C 64.0°F17.8°C 35% 4.8 mph E7.7 kmh E 7.6 mph12.2 kmh 29.92 in1013.2 mb 0.00 in0.0 mm 0.00 in0.0 mm 0.00 in0.0 mm
06:30 PM 96.1°F35.6°C 64.0°F17.8°C 35% 5.9 mph E9.5 kmh E 10.1 mph16.3 kmh 29.93 in1013.5 mb 0.00 in0.0 mm 0.00 in0.0 mm 0.00 in0.0 mm
06:27 PM 96.3°F35.7°C 64.2°F17.9°C 35% 3.7 mph E6.0 kmh E 7.6 mph12.2 kmh 29.92 in1013.2 mb 0.00 in0.0 mm 0.00 in0.0 mm 0.00 in0.0 mm
06:24 PM 96.8°F36.0°C 64.2°F17.9°C 34% 2.0 mph ENE3.2 kmh ENE 4.9 mph7.9 kmh 29.92 in1013.2 mb 0.00 in0.0 mm 0.00 in0.0 mm 0.00 in0.0 mm
06:21 PM 97.0°F36.1°C 63.9°F17.7°C 34% Calm Calm -- 29.92 in1013.2 mb 0.00 in0.0 mm 0.00 in0.0 mm 0.00 in0.0 mm
06:18 PM 96.4°F35.8°C 64.0°F17.8°C 35% 2.2 mph SE3.5 kmh SE 4.9 mph7.9 kmh 29.93 in1013.5 mb 0.00 in0.0 mm 0.00 in0.0 mm 0.00 in0.0 mm
06:15 PM 96.1°F35.6°C 64.0°F17.8°C 35% 1.9 mph E3.1 kmh E 4.9 mph7.9 kmh 29.93 in1013.5 mb 0.00 in0.0 mm 0.00 in0.0 mm 0.00 in0.0 mm
06:12 PM 96.0°F35.6°C 63.9°F17.7°C 35% 4.0 mph SE6.4 kmh SE 7.6 mph12.2 kmh 29.93 in1013.5 mb 0.00 in0.0 mm 0.00 in0.0 mm 0.00 in0.0 mm
06:09 PM 96.2°F35.7°C 64.4°F18.0°C 36% 3.6 mph SSE5.8 kmh SSE 7.6 mph12.2 kmh 29.92 in1013.2 mb 0.00 in0.0 mm 0.00 in0.0 mm 0.00 in0.0 mm
06:06 PM 96.2°F35.7°C 64.2°F17.9°C 35% 4.1 mph ESE6.6 kmh ESE 7.6 mph12.2 kmh 29.92 in1013.2 mb 0.00 in0.0 mm 0.00 in0.0 mm 0.00 in0.0 mm
06:03 PM 96.2°F35.7°C 63.8°F17.7°C 35% 4.2 mph E6.8 kmh E 7.6 mph12.2 kmh 29.92 in1013.2 mb 0.00 in0.0 mm 0.00 in0.0 mm 0.00 in0.0 mm
06:00 PM 96.3°F35.7°C 64.5°F18.1°C 36% 5.3 mph SSE8.5 kmh SSE 10.1 mph16.3 kmh 29.92 in1013.2 mb 0.00 in0.0 mm 0.00 in0.0 mm 0.00 in0.0 mm
05:57 PM 96.2°F35.7°C 64.2°F17.9°C 35% 4.3 mph E6.9 kmh E 7.6 mph12.2 kmh 29.92 in1013.2 mb 0.00 in0.0 mm 0.00 in0.0 mm 0.00 in0.0 mm
05:54 PM 96.8°F36.0°C 64.1°F17.8°C 34% 6.5 mph E10.5 kmh E 10.1 mph16.3 kmh 29.92 in1013.2 mb 0.00 in0.0 mm 0.00 in0.0 mm 0.00 in0.0 mm
05:51 PM 96.7°F35.9°C 64.0°F17.8°C 34% 1.2 mph S1.9 kmh S 4.9 mph7.9 kmh 29.92 in1013.2 mb 0.00 in0.0 mm 0.00 in0.0 mm 0.00 in0.0 mm
05:48 PM 96.6°F35.9°C 63.8°F17.7°C 34% 6.6 mph S10.6 kmh S 10.1 mph16.3 kmh 29.92 in1013.2 mb 0.00 in0.0 mm 0.00 in0.0 mm 0.00 in0.0 mm
05:45 PM 96.4°F35.8°C 64.8°F18.2°C 36% 1.8 mph S2.9 kmh S 4.9 mph7.9 kmh 29.92 in1013.2 mb 0.00 in0.0 mm 0.00 in0.0 mm 0.00 in0.0 mm
05:42 PM 96.2°F35.7°C 64.3°F17.9°C 35% 3.9 mph SSE6.3 kmh SSE 7.6 mph12.2 kmh 29.92 in1013.2 mb 0.00 in0.0 mm 0.00 in0.0 mm 0.00 in0.0 mm
05:39 PM 97.1°F36.2°C 63.2°F17.3°C 33% 5.2 mph SE8.4 kmh SE 7.6 mph12.2 kmh 29.93 in1013.5 mb 0.00 in0.0 mm 0.00 in0.0 mm 0.00 in0.0 mm
05:36 PM 97.1°F36.2°C 63.2°F17.3°C 33% 1.7 mph S2.7 kmh S 4.9 mph7.9 kmh 29.92 in1013.2 mb 0.00 in0.0 mm 0.00 in0.0 mm 0.00 in0.0 mm
05:33 PM 97.2°F36.2°C 63.2°F17.3°C 33% 4.8 mph S7.7 kmh S 10.1 mph16.3 kmh 29.92 in1013.2 mb 0.00 in0.0 mm 0.00 in0.0 mm 0.00 in0.0 mm
05:30 PM 97.4°F36.3°C 63.8°F17.7°C 34% 4.8 mph SSE7.7 kmh SSE 7.6 mph12.2 kmh 29.92 in1013.2 mb 0.00 in0.0 mm 0.00 in0.0 mm 0.00 in0.0 mm
05:27 PM 97.5°F36.4°C 63.1°F17.3°C 32% 3.9 mph S6.3 kmh S 7.6 mph12.2 kmh 29.92 in1013.2 mb 0.00 in0.0 mm 0.00 in0.0 mm 0.00 in0.0 mm
05:24 PM 98.2°F36.8°C 62.6°F17.0°C 31% 4.9 mph SSE7.9 kmh SSE 10.1 mph16.3 kmh 29.93 in1013.5 mb 0.00 in0.0 mm 0.00 in0.0 mm 0.00 in0.0 mm
05:21 PM 98.0°F36.7°C 62.4°F16.9°C 31% 3.3 mph SSE5.3 kmh SSE 7.6 mph12.2 kmh 29.93 in1013.5 mb 0.00 in0.0 mm 0.00 in0.0 mm 0.00 in0.0 mm
05:18 PM 97.9°F36.6°C 62.8°F17.1°C 32% 3.0 mph SSW4.8 kmh SSW 10.1 mph16.3 kmh 29.93 in1013.5 mb 0.00 in0.0 mm 0.00 in0.0 mm 0.00 in0.0 mm
05:15 PM 98.1°F36.7°C 63.8°F17.7°C 33% 2.7 mph SE4.3 kmh SE 10.1 mph16.3 kmh 29.93 in1013.5 mb 0.00 in0.0 mm 0.00 in0.0 mm 0.00 in0.0 mm
05:12 PM 97.5°F36.4°C 64.4°F18.0°C 34% 4.0 mph S6.4 kmh S 7.6 mph12.2 kmh 29.93 in1013.5 mb 0.00 in0.0 mm 0.00 in0.0 mm 0.00 in0.0 mm
05:09 PM 97.5°F36.4°C 64.4°F18.0°C 34% 3.9 mph S6.3 kmh S 4.9 mph7.9 kmh 29.93 in1013.5 mb 0.00 in0.0 mm 0.00 in0.0 mm 0.00 in0.0 mm
05:06 PM 97.3°F36.3°C 64.6°F18.1°C 34% 3.5 mph SSW5.6 kmh SSW 12.5 mph20.1 kmh 29.92 in1013.2 mb 0.00 in0.0 mm 0.00 in0.0 mm 0.00 in0.0 mm
05:03 PM 96.7°F35.9°C 63.9°F17.7°C 34% 4.4 mph SSE7.1 kmh SSE 7.6 mph12.2 kmh 29.93 in1013.5 mb 0.00 in0.0 mm 0.00 in0.0 mm 0.00 in0.0 mm
05:00 PM 96.5°F35.8°C 64.9°F18.3°C 36% 6.9 mph SSE11.1 kmh SSE 15.0 mph24.1 kmh 29.93 in1013.5 mb 0.00 in0.0 mm 0.00 in0.0 mm 0.00 in0.0 mm
04:57 PM 96.3°F35.7°C 64.6°F18.1°C 36% 7.1 mph S11.4 kmh S 10.1 mph16.3 kmh 29.93 in1013.5 mb 0.00 in0.0 mm 0.00 in0.0 mm 0.00 in0.0 mm
04:54 PM 96.8°F36.0°C 64.8°F18.2°C 35% 7.0 mph SSE11.3 kmh SSE 10.1 mph16.3 kmh 29.93 in1013.5 mb 0.00 in0.0 mm 0.00 in0.0 mm 0.00 in0.0 mm
04:51 PM 96.8°F36.0°C 65.5°F18.6°C 36% 3.9 mph SE6.3 kmh SE 7.6 mph12.2 kmh 29.93 in1013.5 mb 0.00 in0.0 mm 0.00 in0.0 mm 0.00 in0.0 mm
04:48 PM 96.8°F36.0°C 65.5°F18.6°C 36% 4.2 mph SE6.8 kmh SE 7.6 mph12.2 kmh 29.93 in1013.5 mb 0.00 in0.0 mm 0.00 in0.0 mm 0.00 in0.0 mm
04:45 PM 96.9°F36.1°C 66.0°F18.9°C 37% 3.9 mph SE6.3 kmh SE 7.6 mph12.2 kmh 29.93 in1013.5 mb 0.00 in0.0 mm 0.00 in0.0 mm 0.00 in0.0 mm
04:42 PM 96.5°F35.8°C 65.7°F18.7°C 37% 5.7 mph SE9.2 kmh SE 10.1 mph16.3 kmh 29.93 in1013.5 mb 0.00 in0.0 mm 0.00 in0.0 mm 0.00 in0.0 mm
04:39 PM 97.0°F36.1°C 64.9°F18.3°C 35% 4.8 mph E7.7 kmh E 10.1 mph16.3 kmh 29.93 in1013.5 mb 0.00 in0.0 mm 0.00 in0.0 mm 0.00 in0.0 mm
04:36 PM 97.8°F36.6°C 65.2°F18.4°C 35% 4.7 mph S7.6 kmh S 10.1 mph16.3 kmh 29.93 in1013.5 mb 0.00 in0.0 mm 0.00 in0.0 mm 0.00 in0.0 mm
04:33 PM 97.3°F36.3°C 63.7°F17.6°C 34% 3.1 mph ESE5.0 kmh ESE 7.6 mph12.2 kmh 29.93 in1013.5 mb 0.00 in0.0 mm 0.00 in0.0 mm 0.00 in0.0 mm
04:30 PM 97.5°F36.4°C 64.1°F17.8°C 34% 1.9 mph ESE3.1 kmh ESE 4.9 mph7.9 kmh 29.93 in1013.5 mb 0.00 in0.0 mm 0.00 in0.0 mm 0.00 in0.0 mm
04:27 PM 97.1°F36.2°C 64.0°F17.8°C 34% 5.5 mph S8.9 kmh S 10.1 mph16.3 kmh 29.94 in1013.9 mb 0.00 in0.0 mm 0.00 in0.0 mm 0.00 in0.0 mm
04:24 PM 96.8°F36.0°C 63.7°F17.6°C 34% 7.0 mph SSE11.3 kmh SSE 15.0 mph24.1 kmh 29.94 in1013.9 mb 0.00 in0.0 mm 0.00 in0.0 mm 0.00 in0.0 mm
04:21 PM 97.8°F36.6°C 64.6°F18.1°C 34% 6.4 mph SE10.3 kmh SE 12.5 mph20.1 kmh 29.94 in1013.9 mb 0.00 in0.0 mm 0.00 in0.0 mm 0.00 in0.0 mm
04:18 PM 97.9°F36.6°C 65.3°F18.5°C 35% 2.9 mph S4.7 kmh S 7.6 mph12.2 kmh 29.94 in1013.9 mb 0.00 in0.0 mm 0.00 in0.0 mm 0.00 in0.0 mm
04:15 PM 97.2°F36.2°C 65.1°F18.4°C 35% 3.8 mph SE6.1 kmh SE 7.6 mph12.2 kmh 29.94 in1013.9 mb 0.00 in0.0 mm 0.00 in0.0 mm 0.00 in0.0 mm
04:12 PM 96.3°F35.7°C 65.5°F18.6°C 37% 6.0 mph S9.7 kmh S 10.1 mph16.3 kmh 29.94 in1013.9 mb 0.00 in0.0 mm 0.00 in0.0 mm 0.00 in0.0 mm
04:09 PM 95.8°F35.4°C 64.7°F18.2°C 36% 3.5 mph S5.6 kmh S 7.6 mph12.2 kmh 29.95 in1014.2 mb 0.00 in0.0 mm 0.00 in0.0 mm 0.00 in0.0 mm
04:06 PM 96.4°F35.8°C 63.6°F17.6°C 34% 1.6 mph S2.6 kmh S 4.9 mph7.9 kmh 29.94 in1013.9 mb 0.00 in0.0 mm 0.00 in0.0 mm 0.00 in0.0 mm
04:03 PM 97.3°F36.3°C 64.8°F18.2°C 35% 2.8 mph SSE4.5 kmh SSE 7.6 mph12.2 kmh 29.94 in1013.9 mb 0.00 in0.0 mm 0.00 in0.0 mm 0.00 in0.0 mm
04:00 PM 96.3°F35.7°C 65.8°F18.8°C 37% 3.9 mph SE6.3 kmh SE 4.9 mph7.9 kmh 29.94 in1013.9 mb 0.00 in0.0 mm 0.00 in0.0 mm 0.00 in0.0 mm
03:57 PM 95.5°F35.3°C 65.8°F18.8°C 38% 2.5 mph S4.0 kmh S 10.1 mph16.3 kmh 29.95 in1014.2 mb 0.00 in0.0 mm 0.00 in0.0 mm 0.00 in0.0 mm
03:54 PM 95.8°F35.4°C 66.0°F18.9°C 38% 5.5 mph SE8.9 kmh SE 10.1 mph16.3 kmh 29.95 in1014.2 mb 0.00 in0.0 mm 0.00 in0.0 mm 0.00 in0.0 mm
03:51 PM 96.0°F35.6°C 65.7°F18.7°C 37% 2.3 mph S3.7 kmh S 4.9 mph7.9 kmh 29.95 in1014.2 mb 0.00 in0.0 mm 0.00 in0.0 mm 0.00 in0.0 mm
03:48 PM 96.8°F36.0°C 64.8°F18.2°C 35% 5.5 mph S8.9 kmh S 10.1 mph16.3 kmh 29.95 in1014.2 mb 0.00 in0.0 mm 0.00 in0.0 mm 0.00 in0.0 mm
03:45 PM 98.9°F37.2°C 64.9°F18.3°C 33% 3.0 mph SE4.8 kmh SE 7.6 mph12.2 kmh 29.95 in1014.2 mb 0.00 in0.0 mm 0.00 in0.0 mm 0.00 in0.0 mm
03:42 PM 98.2°F36.8°C 65.2°F18.4°C 34% 0.6 mph SW1.0 kmh SW 4.9 mph7.9 kmh 29.95 in1014.2 mb 0.00 in0.0 mm 0.00 in0.0 mm 0.00 in0.0 mm
03:39 PM 98.7°F37.1°C 64.5°F18.1°C 33% 4.8 mph S7.7 kmh S 7.6 mph12.2 kmh 29.95 in1014.2 mb 0.00 in0.0 mm 0.00 in0.0 mm 0.00 in0.0 mm
03:36 PM 97.6°F36.4°C 64.2°F17.9°C 34% 1.7 mph SSW2.7 kmh SSW 4.9 mph7.9 kmh 29.95 in1014.2 mb 0.00 in0.0 mm 0.00 in0.0 mm 0.00 in0.0 mm
03:33 PM 97.5°F36.4°C 65.3°F18.5°C 35% 3.9 mph SE6.3 kmh SE 7.6 mph12.2 kmh 29.95 in1014.2 mb 0.00 in0.0 mm 0.00 in0.0 mm 0.00 in0.0 mm
03:30 PM 97.4°F36.3°C 65.7°F18.7°C 36% 1.6 mph S2.6 kmh S 2.5 mph4.0 kmh 29.96 in1014.6 mb 0.00 in0.0 mm 0.00 in0.0 mm 0.00 in0.0 mm
03:27 PM 97.3°F36.3°C 66.0°F18.9°C 36% 1.7 mph SW2.7 kmh SW 4.9 mph7.9 kmh 29.96 in1014.6 mb 0.00 in0.0 mm 0.00 in0.0 mm 0.00 in0.0 mm
03:24 PM 96.8°F36.0°C 65.4°F18.6°C 36% 7.1 mph SSE11.4 kmh SSE 12.5 mph20.1 kmh 29.96 in1014.6 mb 0.00 in0.0 mm 0.00 in0.0 mm 0.00 in0.0 mm
03:21 PM 96.1°F35.6°C 64.9°F18.3°C 36% 2.8 mph SSE4.5 kmh SSE 7.6 mph12.2 kmh 29.96 in1014.6 mb 0.00 in0.0 mm 0.00 in0.0 mm 0.00 in0.0 mm
03:18 PM 96.8°F36.0°C 65.0°F18.3°C 36% 3.7 mph S6.0 kmh S 7.6 mph12.2 kmh 29.96 in1014.6 mb 0.00 in0.0 mm 0.00 in0.0 mm 0.00 in0.0 mm
03:15 PM 97.1°F36.2°C 64.9°F18.3°C 35% 3.1 mph SSE5.0 kmh SSE 4.9 mph7.9 kmh 29.96 in1014.6 mb 0.00 in0.0 mm 0.00 in0.0 mm 0.00 in0.0 mm
03:12 PM 96.7°F35.9°C 65.3°F18.5°C 36% 4.6 mph S7.4 kmh S 10.1 mph16.3 kmh 29.96 in1014.6 mb 0.00 in0.0 mm 0.00 in0.0 mm 0.00 in0.0 mm
03:09 PM 96.1°F35.6°C 67.4°F19.7°C 40% 5.2 mph E8.4 kmh E 10.1 mph16.3 kmh 29.97 in1014.9 mb 0.00 in0.0 mm 0.00 in0.0 mm 0.00 in0.0 mm
03:06 PM 95.9°F35.5°C 65.6°F18.7°C 37% 3.3 mph NE5.3 kmh NE 4.9 mph7.9 kmh 29.97 in1014.9 mb 0.00 in0.0 mm 0.00 in0.0 mm 0.00 in0.0 mm
03:03 PM 97.4°F36.3°C 66.3°F19.1°C 36% 5.2 mph ESE8.4 kmh ESE 10.1 mph16.3 kmh 29.97 in1014.9 mb 0.00 in0.0 mm 0.00 in0.0 mm 0.00 in0.0 mm
03:00 PM 96.4°F35.8°C 65.6°F18.7°C 37% 0.4 mph S0.6 kmh S 2.5 mph4.0 kmh 29.97 in1014.9 mb 0.00 in0.0 mm 0.00 in0.0 mm 0.00 in0.0 mm
02:57 PM 96.7°F35.9°C 66.3°F19.1°C 37% 6.0 mph SE9.7 kmh SE 10.1 mph16.3 kmh 29.97 in1014.9 mb 0.00 in0.0 mm 0.00 in0.0 mm 0.00 in0.0 mm
02:54 PM 96.5°F35.8°C 66.5°F19.2°C 38% 3.5 mph SE5.6 kmh SE 10.1 mph16.3 kmh 29.97 in1014.9 mb 0.00 in0.0 mm 0.00 in0.0 mm 0.00 in0.0 mm
02:51 PM 96.3°F35.7°C 67.0°F19.4°C 39% 5.0 mph ESE8.0 kmh ESE 7.6 mph12.2 kmh 29.98 in1015.2 mb 0.00 in0.0 mm 0.00 in0.0 mm 0.00 in0.0 mm
02:48 PM 96.1°F35.6°C 66.6°F19.2°C 38% 4.0 mph SE6.4 kmh SE 7.6 mph12.2 kmh 29.97 in1014.9 mb 0.00 in0.0 mm 0.00 in0.0 mm 0.00 in0.0 mm
02:45 PM 95.6°F35.3°C 65.5°F18.6°C 38% 3.4 mph S5.5 kmh S 7.6 mph12.2 kmh 29.97 in1014.9 mb 0.00 in0.0 mm 0.00 in0.0 mm 0.00 in0.0 mm
02:42 PM 96.8°F36.0°C 65.6°F18.7°C 36% 6.1 mph SSE9.8 kmh SSE 10.1 mph16.3 kmh 29.97 in1014.9 mb 0.00 in0.0 mm 0.00 in0.0 mm 0.00 in0.0 mm
02:39 PM 97.5°F36.4°C 65.2°F18.4°C 35% 2.1 mph SW3.4 kmh SW 7.6 mph12.2 kmh 29.97 in1014.9 mb 0.00 in0.0 mm 0.00 in0.0 mm 0.00 in0.0 mm
02:36 PM 97.1°F36.2°C 65.6°F18.7°C 36% 1.5 mph S2.4 kmh S 4.9 mph7.9 kmh 29.98 in1015.2 mb 0.00 in0.0 mm 0.00 in0.0 mm 0.00 in0.0 mm
02:33 PM 97.5°F36.4°C 65.8°F18.8°C 36% 3.8 mph SE6.1 kmh SE 7.6 mph12.2 kmh 29.97 in1014.9 mb 0.00 in0.0 mm 0.00 in0.0 mm 0.00 in0.0 mm
02:30 PM 97.5°F36.4°C 66.1°F18.9°C 36% 5.1 mph SE8.2 kmh SE 17.4 mph28.0 kmh 29.98 in1015.2 mb 0.00 in0.0 mm 0.00 in0.0 mm 0.00 in0.0 mm
02:27 PM 97.2°F36.2°C 66.7°F19.3°C 37% 1.8 mph SW2.9 kmh SW 4.9 mph7.9 kmh 29.98 in1015.2 mb 0.00 in0.0 mm 0.00 in0.0 mm 0.00 in0.0 mm
02:24 PM 97.0°F36.1°C 66.6°F19.2°C 37% 5.2 mph S8.4 kmh S 10.1 mph16.3 kmh 29.98 in1015.2 mb 0.00 in0.0 mm 0.00 in0.0 mm 0.00 in0.0 mm
02:21 PM 96.0°F35.6°C 66.4°F19.1°C 38% 4.2 mph S6.8 kmh S 4.9 mph7.9 kmh 29.98 in1015.2 mb 0.00 in0.0 mm 0.00 in0.0 mm 0.00 in0.0 mm
02:18 PM 95.9°F35.5°C 66.1°F18.9°C 38% 6.2 mph S10.0 kmh S 12.5 mph20.1 kmh 29.98 in1015.2 mb 0.00 in0.0 mm 0.00 in0.0 mm 0.00 in0.0 mm
02:15 PM 95.9°F35.5°C 67.1°F19.5°C 39% 5.3 mph S8.5 kmh S 7.6 mph12.2 kmh 29.98 in1015.2 mb 0.00 in0.0 mm 0.00 in0.0 mm 0.00 in0.0 mm
02:12 PM 96.3°F35.7°C 67.3°F19.6°C 39% 4.8 mph S7.7 kmh S 10.1 mph16.3 kmh 29.98 in1015.2 mb 0.00 in0.0 mm 0.00 in0.0 mm 0.00 in0.0 mm
02:09 PM 96.2°F35.7°C 67.0°F19.4°C 39% 3.8 mph SE6.1 kmh SE 7.6 mph12.2 kmh 29.98 in1015.2 mb 0.00 in0.0 mm 0.00 in0.0 mm 0.00 in0.0 mm
02:06 PM 96.2°F35.7°C 66.2°F19.0°C 38% 6.0 mph S9.7 kmh S 12.5 mph20.1 kmh 29.98 in1015.2 mb 0.00 in0.0 mm 0.00 in0.0 mm 0.00 in0.0 mm
02:03 PM 96.8°F36.0°C 65.4°F18.6°C 36% 1.5 mph SSE2.4 kmh SSE 2.5 mph4.0 kmh 29.98 in1015.2 mb 0.00 in0.0 mm 0.00 in0.0 mm 0.00 in0.0 mm
02:00 PM 96.4°F35.8°C 65.2°F18.4°C 36% 0.7 mph SSW1.1 kmh SSW 2.5 mph4.0 kmh 29.98 in1015.2 mb 0.00 in0.0 mm 0.00 in0.0 mm 0.00 in0.0 mm
01:57 PM 97.6°F36.4°C 66.3°F19.1°C 36% 7.3 mph SE11.7 kmh SE 10.1 mph16.3 kmh 29.98 in1015.2 mb 0.00 in0.0 mm 0.00 in0.0 mm 0.00 in0.0 mm
01:54 PM 96.9°F36.1°C 66.3°F19.1°C 37% 2.0 mph SE3.2 kmh SE 7.6 mph12.2 kmh 29.98 in1015.2 mb 0.00 in0.0 mm 0.00 in0.0 mm 0.00 in0.0 mm
01:51 PM 96.2°F35.7°C 66.3°F19.1°C 38% 3.4 mph E5.5 kmh E 7.6 mph12.2 kmh 29.99 in1015.6 mb 0.00 in0.0 mm 0.00 in0.0 mm 0.00 in0.0 mm
01:48 PM 96.3°F35.7°C 66.3°F19.1°C 38% 2.5 mph S4.0 kmh S 10.1 mph16.3 kmh 29.99 in1015.6 mb 0.00 in0.0 mm 0.00 in0.0 mm 0.00 in0.0 mm
01:45 PM 95.9°F35.5°C 66.7°F19.3°C 39% 6.7 mph SE10.8 kmh SE 10.1 mph16.3 kmh 29.99 in1015.6 mb 0.00 in0.0 mm 0.00 in0.0 mm 0.00 in0.0 mm
01:42 PM 95.9°F35.5°C 66.5°F19.2°C 38% 5.7 mph SSE9.2 kmh SSE 10.1 mph16.3 kmh 29.99 in1015.6 mb 0.00 in0.0 mm 0.00 in0.0 mm 0.00 in0.0 mm
01:39 PM 95.5°F35.3°C 67.1°F19.5°C 40% 5.2 mph SE8.4 kmh SE 10.1 mph16.3 kmh 29.99 in1015.6 mb 0.00 in0.0 mm 0.00 in0.0 mm 0.00 in0.0 mm
01:36 PM 95.7°F35.4°C 66.3°F19.1°C 38% 3.2 mph S5.1 kmh S 7.6 mph12.2 kmh 29.99 in1015.6 mb 0.00 in0.0 mm 0.00 in0.0 mm 0.00 in0.0 mm
01:33 PM 96.2°F35.7°C 67.7°F19.8°C 40% 1.8 mph S2.9 kmh S 7.6 mph12.2 kmh 29.99 in1015.6 mb 0.00 in0.0 mm 0.00 in0.0 mm 0.00 in0.0 mm
01:30 PM 95.1°F35.1°C 66.9°F19.4°C 40% 3.9 mph SE6.3 kmh SE 7.6 mph12.2 kmh 29.99 in1015.6 mb 0.00 in0.0 mm 0.00 in0.0 mm 0.00 in0.0 mm
01:27 PM 94.9°F34.9°C 66.4°F19.1°C 40% 3.4 mph ESE5.5 kmh ESE 7.6 mph12.2 kmh 29.98 in1015.2 mb 0.00 in0.0 mm 0.00 in0.0 mm 0.00 in0.0 mm
01:24 PM 95.0°F35.0°C 66.4°F19.1°C 40% 6.2 mph SE10.0 kmh SE 7.6 mph12.2 kmh 30.00 in1015.9 mb 0.00 in0.0 mm 0.00 in0.0 mm 0.00 in0.0 mm
01:21 PM 95.6°F35.3°C 67.0°F19.4°C 40% 6.0 mph SSE9.7 kmh SSE 10.1 mph16.3 kmh 30.00 in1015.9 mb 0.00 in0.0 mm 0.00 in0.0 mm 0.00 in0.0 mm
01:18 PM 95.2°F35.1°C 66.8°F19.3°C 40% 6.7 mph S10.8 kmh S 10.1 mph16.3 kmh 29.99 in1015.6 mb 0.00 in0.0 mm 0.00 in0.0 mm 0.00 in0.0 mm
01:15 PM 95.1°F35.1°C 67.3°F19.6°C 40% 3.4 mph SSE5.5 kmh SSE 4.9 mph7.9 kmh 29.99 in1015.6 mb 0.00 in0.0 mm 0.00 in0.0 mm 0.00 in0.0 mm
01:12 PM 95.3°F35.2°C 66.5°F19.2°C 39% 4.1 mph ESE6.6 kmh ESE 7.6 mph12.2 kmh 29.98 in1015.2 mb 0.00 in0.0 mm 0.00 in0.0 mm 0.00 in0.0 mm
01:09 PM 94.9°F34.9°C 66.7°F19.3°C 40% 2.1 mph SE3.4 kmh SE 4.9 mph7.9 kmh 29.99 in1015.6 mb 0.00 in0.0 mm 0.00 in0.0 mm 0.00 in0.0 mm
01:06 PM 95.6°F35.3°C 65.9°F18.8°C 38% 6.0 mph E9.7 kmh E 10.1 mph16.3 kmh 29.99 in1015.6 mb 0.00 in0.0 mm 0.00 in0.0 mm 0.00 in0.0 mm
01:03 PM 96.0°F35.6°C 66.0°F18.9°C 38% 3.3 mph ESE5.3 kmh ESE 7.6 mph12.2 kmh 30.00 in1015.9 mb 0.00 in0.0 mm 0.00 in0.0 mm 0.00 in0.0 mm
01:00 PM 96.3°F35.7°C 65.9°F18.8°C 37% 5.8 mph SE9.3 kmh SE 10.1 mph16.3 kmh 29.99 in1015.6 mb 0.00 in0.0 mm 0.00 in0.0 mm 0.00 in0.0 mm
12:57 PM 95.6°F35.3°C 65.3°F18.5°C 37% 0.5 mph E0.8 kmh E 2.5 mph4.0 kmh 29.99 in1015.6 mb 0.00 in0.0 mm 0.00 in0.0 mm 0.00 in0.0 mm
12:54 PM 96.0°F35.6°C 66.2°F19.0°C 38% 0.6 mph WSW1.0 kmh WSW 2.5 mph4.0 kmh 30.00 in1015.9 mb 0.00 in0.0 mm 0.00 in0.0 mm 0.00 in0.0 mm
12:51 PM 95.9°F35.5°C 67.3°F19.6°C 40% 0.3 mph SW0.5 kmh SW 2.5 mph4.0 kmh 30.00 in1015.9 mb 0.00 in0.0 mm 0.00 in0.0 mm 0.00 in0.0 mm
12:48 PM 96.0°F35.6°C 67.8°F19.9°C 40% 4.5 mph SE7.2 kmh SE 7.6 mph12.2 kmh 30.00 in1015.9 mb 0.00 in0.0 mm 0.00 in0.0 mm 0.00 in0.0 mm
12:45 PM 95.9°F35.5°C 68.2°F20.1°C 41% 2.1 mph SSE3.4 kmh SSE 7.6 mph12.2 kmh 29.99 in1015.6 mb 0.00 in0.0 mm 0.00 in0.0 mm 0.00 in0.0 mm
12:42 PM 95.2°F35.1°C 66.2°F19.0°C 39% 2.0 mph SSE3.2 kmh SSE 4.9 mph7.9 kmh 30.00 in1015.9 mb 0.00 in0.0 mm 0.00 in0.0 mm 0.00 in0.0 mm
12:39 PM 95.5°F35.3°C 65.8°F18.8°C 38% 1.1 mph SE1.8 kmh SE 4.9 mph7.9 kmh 30.00 in1015.9 mb 0.00 in0.0 mm 0.00 in0.0 mm 0.00 in0.0 mm
12:36 PM 95.6°F35.3°C 67.3°F19.6°C 40% 0.5 mph SE0.8 kmh SE 2.5 mph4.0 kmh 30.00 in1015.9 mb 0.00 in0.0 mm 0.00 in0.0 mm 0.00 in0.0 mm
12:33 PM 94.5°F34.7°C 66.6°F19.2°C 40% 0.1 mph WSW0.2 kmh WSW 2.5 mph4.0 kmh 30.01 in1016.3 mb 0.00 in0.0 mm 0.00 in0.0 mm 0.00 in0.0 mm
12:30 PM 95.3°F35.2°C 67.1°F19.5°C 40% 2.7 mph S4.3 kmh S 7.6 mph12.2 kmh 30.00 in1015.9 mb 0.00 in0.0 mm 0.00 in0.0 mm 0.00 in0.0 mm
12:27 PM 94.6°F34.8°C 69.2°F20.7°C 44% 1.6 mph S2.6 kmh S 4.9 mph7.9 kmh 30.00 in1015.9 mb 0.00 in0.0 mm 0.00 in0.0 mm 0.00 in0.0 mm
12:24 PM 94.2°F34.6°C 71.3°F21.8°C 48% 0.3 mph NE0.5 kmh NE 2.5 mph4.0 kmh 30.01 in1016.3 mb 0.00 in0.0 mm 0.00 in0.0 mm 0.00 in0.0 mm
12:21 PM 93.9°F34.4°C 70.2°F21.2°C 46% 2.0 mph N3.2 kmh N 4.9 mph7.9 kmh 30.01 in1016.3 mb 0.00 in0.0 mm 0.00 in0.0 mm 0.00 in0.0 mm
12:18 PM 94.1°F34.5°C 69.8°F21.0°C 46% 2.5 mph NNE4.0 kmh NNE 4.9 mph7.9 kmh 30.00 in1015.9 mb 0.00 in0.0 mm 0.00 in0.0 mm 0.00 in0.0 mm
12:15 PM 95.9°F35.5°C 67.8°F19.9°C 40% 2.6 mph NE4.2 kmh NE 7.6 mph12.2 kmh 30.01 in1016.3 mb 0.00 in0.0 mm 0.00 in0.0 mm 0.00 in0.0 mm
12:12 PM 95.8°F35.4°C 68.6°F20.3°C 42% 0.5 mph NNW0.8 kmh NNW 2.5 mph4.0 kmh 30.01 in1016.3 mb 0.00 in0.0 mm 0.00 in0.0 mm 0.00 in0.0 mm
12:09 PM 95.1°F35.1°C 69.7°F20.9°C 44% 0.6 mph SW1.0 kmh SW 2.5 mph4.0 kmh 30.01 in1016.3 mb 0.00 in0.0 mm 0.00 in0.0 mm 0.00 in0.0 mm
12:06 PM 93.7°F34.3°C 71.7°F22.1°C 49% 0.9 mph S1.4 kmh S 4.9 mph7.9 kmh 30.00 in1015.9 mb 0.00 in0.0 mm 0.00 in0.0 mm 0.00 in0.0 mm
12:03 PM 92.2°F33.4°C 71.8°F22.1°C 52% 0.5 mph WSW0.8 kmh WSW 2.5 mph4.0 kmh 30.01 in1016.3 mb 0.00 in0.0 mm 0.00 in0.0 mm 0.00 in0.0 mm
12:00 PM 91.7°F33.2°C 71.0°F21.7°C 51% 1.0 mph WNW1.6 kmh WNW 4.9 mph7.9 kmh 30.02 in1016.6 mb 0.00 in0.0 mm 0.00 in0.0 mm 0.00 in0.0 mm
11:57 AM 92.0°F33.3°C 70.5°F21.4°C 50% 1.5 mph W2.4 kmh W 4.9 mph7.9 kmh 30.02 in1016.6 mb 0.00 in0.0 mm 0.00 in0.0 mm 0.00 in0.0 mm
11:54 AM 93.3°F34.1°C 72.0°F22.2°C 50% 0.2 mph W0.3 kmh W 2.5 mph4.0 kmh 30.01 in1016.3 mb 0.00 in0.0 mm 0.00 in0.0 mm 0.00 in0.0 mm
11:51 AM 91.9°F33.3°C 71.7°F22.1°C 52% 1.2 mph WNW1.9 kmh WNW 2.5 mph4.0 kmh 30.02 in1016.6 mb 0.00 in0.0 mm 0.00 in0.0 mm 0.00 in0.0 mm
11:48 AM 92.0°F33.3°C 71.1°F21.7°C 51% 0.7 mph WSW1.1 kmh WSW 2.5 mph4.0 kmh 30.02 in1016.6 mb 0.00 in0.0 mm 0.00 in0.0 mm 0.00 in0.0 mm
11:45 AM 91.9°F33.3°C 71.7°F22.1°C 52% 0.3 mph W0.5 kmh W 2.5 mph4.0 kmh 30.02 in1016.6 mb 0.00 in0.0 mm 0.00 in0.0 mm 0.00 in0.0 mm
11:42 AM 91.1°F32.8°C 70.7°F21.5°C 52% 1.8 mph SE2.9 kmh SE 2.5 mph4.0 kmh 30.02 in1016.6 mb 0.00 in0.0 mm 0.00 in0.0 mm 0.00 in0.0 mm
11:39 AM 90.8°F32.7°C 70.7°F21.5°C 52% 1.0 mph WSW1.6 kmh WSW 2.5 mph4.0 kmh 30.02 in1016.6 mb 0.00 in0.0 mm 0.00 in0.0 mm 0.00 in0.0 mm
11:36 AM 90.2°F32.3°C 70.3°F21.3°C 52% 0.6 mph W1.0 kmh W 2.5 mph4.0 kmh 30.02 in1016.6 mb 0.00 in0.0 mm 0.00 in0.0 mm 0.00 in0.0 mm
11:33 AM 89.9°F32.2°C 70.1°F21.2°C 52% 1.1 mph WNW1.8 kmh WNW 4.9 mph7.9 kmh 30.01 in1016.3 mb 0.00 in0.0 mm 0.00 in0.0 mm 0.00 in0.0 mm
11:30 AM 90.0°F32.2°C 69.8°F21.0°C 52% 2.7 mph WNW4.3 kmh WNW 7.6 mph12.2 kmh 30.02 in1016.6 mb 0.00 in0.0 mm 0.00 in0.0 mm 0.00 in0.0 mm
11:27 AM 90.0°F32.2°C 69.6°F20.9°C 51% 0.8 mph W1.3 kmh W 4.9 mph7.9 kmh 30.02 in1016.6 mb 0.00 in0.0 mm 0.00 in0.0 mm 0.00 in0.0 mm
11:24 AM 91.4°F33.0°C 70.9°F21.6°C 52% 0.9 mph NW1.4 kmh NW 2.5 mph4.0 kmh 30.01 in1016.3 mb 0.00 in0.0 mm 0.00 in0.0 mm 0.00 in0.0 mm
11:21 AM 90.8°F32.7°C 70.5°F21.4°C 52% 1.3 mph W2.1 kmh W 2.5 mph4.0 kmh 30.02 in1016.6 mb 0.00 in0.0 mm 0.00 in0.0 mm 0.00 in0.0 mm
11:18 AM 91.6°F33.1°C 71.6°F22.0°C 52% 0.3 mph WSW0.5 kmh WSW 2.5 mph4.0 kmh 30.02 in1016.6 mb 0.00 in0.0 mm 0.00 in0.0 mm 0.00 in0.0 mm
11:15 AM 91.2°F32.9°C 72.0°F22.2°C 54% Calm Calm -- 30.02 in1016.6 mb 0.00 in0.0 mm 0.00 in0.0 mm 0.00 in0.0 mm
11:12 AM 89.7°F32.1°C 71.9°F22.2°C 56% 0.1 mph W0.2 kmh W 2.5 mph4.0 kmh 30.01 in1016.3 mb 0.00 in0.0 mm 0.00 in0.0 mm 0.00 in0.0 mm
11:09 AM 89.4°F31.9°C 71.2°F21.8°C 55% 1.9 mph WNW3.1 kmh WNW 7.6 mph12.2 kmh 30.02 in1016.6 mb 0.00 in0.0 mm 0.00 in0.0 mm 0.00 in0.0 mm
11:06 AM 89.5°F31.9°C 71.2°F21.8°C 55% 0.9 mph WNW1.4 kmh WNW 2.5 mph4.0 kmh 30.02 in1016.6 mb 0.00 in0.0 mm 0.00 in0.0 mm 0.00 in0.0 mm
11:03 AM 89.4°F31.9°C 70.9°F21.6°C 55% 1.4 mph W2.3 kmh W 4.9 mph7.9 kmh 30.02 in1016.6 mb 0.00 in0.0 mm 0.00 in0.0 mm 0.00 in0.0 mm
11:00 AM 91.0°F32.8°C 71.0°F21.7°C 52% 1.2 mph WNW1.9 kmh WNW 4.9 mph7.9 kmh 30.01 in1016.3 mb 0.00 in0.0 mm 0.00 in0.0 mm 0.00 in0.0 mm
10:57 AM 90.8°F32.7°C 70.7°F21.5°C 52% 1.0 mph SSW1.6 kmh SSW 4.9 mph7.9 kmh 30.02 in1016.6 mb 0.00 in0.0 mm 0.00 in0.0 mm 0.00 in0.0 mm
10:54 AM 90.9°F32.7°C 71.4°F21.9°C 53% 0.1 mph W0.2 kmh W 2.5 mph4.0 kmh 30.01 in1016.3 mb 0.00 in0.0 mm 0.00 in0.0 mm 0.00 in0.0 mm
10:51 AM 90.8°F32.7°C 71.4°F21.9°C 53% 0.1 mph W0.2 kmh W 2.5 mph4.0 kmh 30.02 in1016.6 mb 0.00 in0.0 mm 0.00 in0.0 mm 0.00 in0.0 mm
10:48 AM 89.9°F32.2°C 70.9°F21.6°C 54% 0.3 mph NW0.5 kmh NW 2.5 mph4.0 kmh 30.02 in1016.6 mb 0.00 in0.0 mm 0.00 in0.0 mm 0.00 in0.0 mm
10:45 AM 90.4°F32.4°C 70.9°F21.6°C 53% 1.0 mph W1.6 kmh W 2.5 mph4.0 kmh 30.01 in1016.3 mb 0.00 in0.0 mm 0.00 in0.0 mm 0.00 in0.0 mm
10:42 AM 89.7°F32.1°C 71.8°F22.1°C 56% Calm Calm -- 30.01 in1016.3 mb 0.00 in0.0 mm 0.00 in0.0 mm 0.00 in0.0 mm
10:39 AM 88.9°F31.6°C 71.3°F21.8°C 56% Calm Calm -- 30.01 in1016.3 mb 0.00 in0.0 mm 0.00 in0.0 mm 0.00 in0.0 mm
10:36 AM 89.2°F31.8°C 70.5°F21.4°C 54% 0.6 mph W1.0 kmh W 2.5 mph4.0 kmh 30.02 in1016.6 mb 0.00 in0.0 mm 0.00 in0.0 mm 0.00 in0.0 mm
10:33 AM 89.4°F31.9°C 70.4°F21.3°C 54% 0.3 mph SW0.5 kmh SW 2.5 mph4.0 kmh 30.02 in1016.6 mb 0.00 in0.0 mm 0.00 in0.0 mm 0.00 in0.0 mm
10:30 AM 89.6°F32.0°C 70.4°F21.3°C 54% 1.0 mph WSW1.6 kmh WSW 2.5 mph4.0 kmh 30.01 in1016.3 mb 0.00 in0.0 mm 0.00 in0.0 mm 0.00 in0.0 mm
10:27 AM 90.0°F32.2°C 71.4°F21.9°C 55% 0.1 mph WSW0.2 kmh WSW 2.5 mph4.0 kmh 30.00 in1015.9 mb 0.00 in0.0 mm 0.00 in0.0 mm 0.00 in0.0 mm
10:24 AM 89.3°F31.8°C 71.4°F21.9°C 56% 0.7 mph SSW1.1 kmh SSW 2.5 mph4.0 kmh 30.01 in1016.3 mb 0.00 in0.0 mm 0.00 in0.0 mm 0.00 in0.0 mm
10:21 AM 89.2°F31.8°C 71.5°F21.9°C 56% 0.2 mph WSW0.3 kmh WSW 2.5 mph4.0 kmh 30.01 in1016.3 mb 0.00 in0.0 mm 0.00 in0.0 mm 0.00 in0.0 mm
10:18 AM 89.4°F31.9°C 71.7°F22.1°C 56% 0.5 mph S0.8 kmh S 2.5 mph4.0 kmh 30.01 in1016.3 mb 0.00 in0.0 mm 0.00 in0.0 mm 0.00 in0.0 mm
10:15 AM 89.1°F31.7°C 71.8°F22.1°C 57% 0.1 mph W0.2 kmh W 2.5 mph4.0 kmh 30.00 in1015.9 mb 0.00 in0.0 mm 0.00 in0.0 mm 0.00 in0.0 mm
10:12 AM 88.6°F31.4°C 72.4°F22.4°C 59% 0.5 mph S0.8 kmh S 2.5 mph4.0 kmh 30.01 in1016.3 mb 0.00 in0.0 mm 0.00 in0.0 mm 0.00 in0.0 mm
10:09 AM 88.2°F31.2°C 72.5°F22.5°C 60% 0.9 mph WSW1.4 kmh WSW 4.9 mph7.9 kmh 30.00 in1015.9 mb 0.00 in0.0 mm 0.00 in0.0 mm 0.00 in0.0 mm
10:06 AM 87.6°F30.9°C 72.1°F22.3°C 60% 2.7 mph SSE4.3 kmh SSE 4.9 mph7.9 kmh 30.01 in1016.3 mb 0.00 in0.0 mm 0.00 in0.0 mm 0.00 in0.0 mm
10:03 AM 87.4°F30.8°C 71.9°F22.2°C 60% 2.3 mph SSE3.7 kmh SSE 4.9 mph7.9 kmh 30.01 in1016.3 mb 0.00 in0.0 mm 0.00 in0.0 mm 0.00 in0.0 mm
10:00 AM 87.5°F30.8°C 72.1°F22.3°C 60% 1.5 mph WSW2.4 kmh WSW 4.9 mph7.9 kmh 30.01 in1016.3 mb 0.00 in0.0 mm 0.00 in0.0 mm 0.00 in0.0 mm
09:57 AM 87.5°F30.8°C 71.8°F22.1°C 60% 3.1 mph S5.0 kmh S 7.6 mph12.2 kmh 30.01 in1016.3 mb 0.00 in0.0 mm 0.00 in0.0 mm 0.00 in0.0 mm
09:54 AM 86.9°F30.5°C 71.8°F22.1°C 61% 0.1 mph SW0.2 kmh SW 2.5 mph4.0 kmh 30.01 in1016.3 mb 0.00 in0.0 mm 0.00 in0.0 mm 0.00 in0.0 mm
09:51 AM 87.5°F30.8°C 72.3°F22.4°C 61% 0.4 mph WSW0.6 kmh WSW 2.5 mph4.0 kmh 30.01 in1016.3 mb 0.00 in0.0 mm 0.00 in0.0 mm 0.00 in0.0 mm
09:48 AM 87.5°F30.8°C 72.3°F22.4°C 61% 0.7 mph SW1.1 kmh SW 2.5 mph4.0 kmh 30.01 in1016.3 mb 0.00 in0.0 mm 0.00 in0.0 mm 0.00 in0.0 mm
09:45 AM 87.5°F30.8°C 72.4°F22.4°C 61% 3.1 mph SE5.0 kmh SE 7.6 mph12.2 kmh 30.01 in1016.3 mb 0.00 in0.0 mm 0.00 in0.0 mm 0.00 in0.0 mm
09:42 AM 87.4°F30.8°C 72.5°F22.5°C 62% 0.2 mph SW0.3 kmh SW 2.5 mph4.0 kmh 30.01 in1016.3 mb 0.00 in0.0 mm 0.00 in0.0 mm 0.00 in0.0 mm
09:39 AM 87.2°F30.7°C 72.6°F22.6°C 62% 0.2 mph SSW0.3 kmh SSW 2.5 mph4.0 kmh 30.01 in1016.3 mb 0.00 in0.0 mm 0.00 in0.0 mm 0.00 in0.0 mm
09:36 AM 86.9°F30.5°C 72.8°F22.7°C 63% 0.3 mph SW0.5 kmh SW 2.5 mph4.0 kmh 30.00 in1015.9 mb 0.00 in0.0 mm 0.00 in0.0 mm 0.00 in0.0 mm
09:33 AM 87.0°F30.6°C 73.1°F22.8°C 64% 1.6 mph SSW2.6 kmh SSW 7.6 mph12.2 kmh 30.00 in1015.9 mb 0.00 in0.0 mm 0.00 in0.0 mm 0.00 in0.0 mm
09:30 AM 86.2°F30.1°C 72.2°F22.3°C 63% 1.6 mph S2.6 kmh S 2.5 mph4.0 kmh 30.01 in1016.3 mb 0.00 in0.0 mm 0.00 in0.0 mm 0.00 in0.0 mm
09:27 AM 86.7°F30.4°C 72.6°F22.6°C 63% 2.4 mph S3.9 kmh S 4.9 mph7.9 kmh 30.01 in1016.3 mb 0.00 in0.0 mm 0.00 in0.0 mm 0.00 in0.0 mm
09:24 AM 86.0°F30.0°C 72.9°F22.7°C 65% 0.8 mph SW1.3 kmh SW 2.5 mph4.0 kmh 30.01 in1016.3 mb 0.00 in0.0 mm 0.00 in0.0 mm 0.00 in0.0 mm
09:21 AM 85.5°F29.7°C 72.8°F22.7°C 66% 0.5 mph SW0.8 kmh SW 2.5 mph4.0 kmh 30.01 in1016.3 mb 0.00 in0.0 mm 0.00 in0.0 mm 0.00 in0.0 mm
09:18 AM 86.0°F30.0°C 73.2°F22.9°C 66% 0.8 mph SSE1.3 kmh SSE 2.5 mph4.0 kmh 30.00 in1015.9 mb 0.00 in0.0 mm 0.00 in0.0 mm 0.00 in0.0 mm
09:15 AM 85.5°F29.7°C 73.6°F23.1°C 68% 0.4 mph WSW0.6 kmh WSW 2.5 mph4.0 kmh 30.01 in1016.3 mb 0.00 in0.0 mm 0.00 in0.0 mm 0.00 in0.0 mm
09:12 AM 85.6°F29.8°C 73.9°F23.3°C 68% Calm Calm -- 30.01 in1016.3 mb 0.00 in0.0 mm 0.00 in0.0 mm 0.00 in0.0 mm
09:09 AM 84.8°F29.3°C 73.2°F22.9°C 68% 2.1 mph SSW3.4 kmh SSW 4.9 mph7.9 kmh 30.01 in1016.3 mb 0.00 in0.0 mm 0.00 in0.0 mm 0.00 in0.0 mm
09:06 AM 84.6°F29.2°C 73.0°F22.8°C 68% 0.7 mph SSW1.1 kmh SSW 2.5 mph4.0 kmh 30.01 in1016.3 mb 0.00 in0.0 mm 0.00 in0.0 mm 0.00 in0.0 mm
09:03 AM 85.2°F29.6°C 73.5°F23.1°C 68% 2.0 mph S3.2 kmh S 4.9 mph7.9 kmh 30.01 in1016.3 mb 0.00 in0.0 mm 0.00 in0.0 mm 0.00 in0.0 mm
09:00 AM 85.2°F29.6°C 73.5°F23.1°C 68% 1.9 mph SSW3.1 kmh SSW 4.9 mph7.9 kmh 30.02 in1016.6 mb 0.00 in0.0 mm 0.00 in0.0 mm 0.00 in0.0 mm
08:57 AM 85.0°F29.4°C 73.8°F23.2°C 69% 0.8 mph SW1.3 kmh SW 2.5 mph4.0 kmh 30.02 in1016.6 mb 0.00 in0.0 mm 0.00 in0.0 mm 0.00 in0.0 mm
08:54 AM 84.4°F29.1°C 73.1°F22.8°C 69% 1.4 mph SW2.3 kmh SW 2.5 mph4.0 kmh 30.01 in1016.3 mb 0.00 in0.0 mm 0.00 in0.0 mm 0.00 in0.0 mm
08:51 AM 84.5°F29.2°C 73.6°F23.1°C 70% 0.4 mph WSW0.6 kmh WSW 2.5 mph4.0 kmh 30.02 in1016.6 mb 0.00 in0.0 mm 0.00 in0.0 mm 0.00 in0.0 mm
08:48 AM 84.2°F29.0°C 73.3°F22.9°C 70% 0.5 mph SW0.8 kmh SW 2.5 mph4.0 kmh 30.01 in1016.3 mb 0.00 in0.0 mm 0.00 in0.0 mm 0.00 in0.0 mm
08:45 AM 84.5°F29.2°C 73.8°F23.2°C 70% 1.4 mph SW2.3 kmh SW 4.9 mph7.9 kmh 30.01 in1016.3 mb 0.00 in0.0 mm 0.00 in0.0 mm 0.00 in0.0 mm
08:42 AM 84.3°F29.1°C 73.7°F23.2°C 70% 0.7 mph SW1.1 kmh SW 2.5 mph4.0 kmh 30.01 in1016.3 mb 0.00 in0.0 mm 0.00 in0.0 mm 0.00 in0.0 mm
08:39 AM 84.6°F29.2°C 73.7°F23.2°C 70% 1.7 mph SW2.7 kmh SW 4.9 mph7.9 kmh 30.01 in1016.3 mb 0.00 in0.0 mm 0.00 in0.0 mm 0.00 in0.0 mm
08:36 AM 84.0°F28.9°C 73.5°F23.1°C 71% 0.2 mph SSW0.3 kmh SSW 2.5 mph4.0 kmh 30.01 in1016.3 mb 0.00 in0.0 mm 0.00 in0.0 mm 0.00 in0.0 mm
08:33 AM 83.5°F28.6°C 73.7°F23.2°C 72% 0.8 mph S1.3 kmh S 2.5 mph4.0 kmh 30.01 in1016.3 mb 0.00 in0.0 mm 0.00 in0.0 mm 0.00 in0.0 mm
08:30 AM 83.3°F28.5°C 73.8°F23.2°C 73% 0.5 mph SSW0.8 kmh SSW 2.5 mph4.0 kmh 30.01 in1016.3 mb 0.00 in0.0 mm 0.00 in0.0 mm 0.00 in0.0 mm
08:27 AM 83.1°F28.4°C 73.5°F23.1°C 73% 0.4 mph S0.6 kmh S 2.5 mph4.0 kmh 30.01 in1016.3 mb 0.00 in0.0 mm 0.00 in0.0 mm 0.00 in0.0 mm
08:24 AM 83.3°F28.5°C 73.7°F23.2°C 73% 0.6 mph SW1.0 kmh SW 2.5 mph4.0 kmh 30.01 in1016.3 mb 0.00 in0.0 mm 0.00 in0.0 mm 0.00 in0.0 mm
08:21 AM 83.5°F28.6°C 73.9°F23.3°C 73% 1.3 mph S2.1 kmh S 4.9 mph7.9 kmh 30.01 in1016.3 mb 0.00 in0.0 mm 0.00 in0.0 mm 0.00 in0.0 mm
08:18 AM 83.0°F28.3°C 73.5°F23.1°C 73% 0.9 mph S1.4 kmh S 4.9 mph7.9 kmh 30.01 in1016.3 mb 0.00 in0.0 mm 0.00 in0.0 mm 0.00 in0.0 mm
08:15 AM 83.3°F28.5°C 74.1°F23.4°C 74% Calm Calm -- 30.01 in1016.3 mb 0.00 in0.0 mm 0.00 in0.0 mm 0.00 in0.0 mm
08:12 AM 83.0°F28.3°C 74.1°F23.4°C 75% Calm Calm -- 30.01 in1016.3 mb 0.00 in0.0 mm 0.00 in0.0 mm 0.00 in0.0 mm
08:09 AM 82.6°F28.1°C 73.9°F23.3°C 75% 0.4 mph S0.6 kmh S 2.5 mph4.0 kmh 30.01 in1016.3 mb 0.00 in0.0 mm 0.00 in0.0 mm 0.00 in0.0 mm
08:06 AM 82.1°F27.8°C 73.7°F23.2°C 76% 1.4 mph SW2.3 kmh SW 2.5 mph4.0 kmh 30.01 in1016.3 mb 0.00 in0.0 mm 0.00 in0.0 mm 0.00 in0.0 mm
08:03 AM 81.9°F27.7°C 73.9°F23.3°C 77% 1.1 mph SSW1.8 kmh SSW 2.5 mph4.0 kmh 30.01 in1016.3 mb 0.00 in0.0 mm 0.00 in0.0 mm 0.00 in0.0 mm
08:00 AM 81.7°F27.6°C 73.8°F23.2°C 77% 1.8 mph S2.9 kmh S 4.9 mph7.9 kmh 30.01 in1016.3 mb 0.00 in0.0 mm 0.00 in0.0 mm 0.00 in0.0 mm
07:57 AM 81.7°F27.6°C 74.1°F23.4°C 78% 2.6 mph S4.2 kmh S 4.9 mph7.9 kmh 30.01 in1016.3 mb 0.00 in0.0 mm 0.00 in0.0 mm 0.00 in0.0 mm
07:54 AM 81.4°F27.4°C 74.1°F23.4°C 78% 1.4 mph SW2.3 kmh SW 2.5 mph4.0 kmh 30.01 in1016.3 mb 0.00 in0.0 mm 0.00 in0.0 mm 0.00 in0.0 mm
07:51 AM 81.2°F27.3°C 74.4°F23.6°C 80% 0.6 mph S1.0 kmh S 2.5 mph4.0 kmh 30.01 in1016.3 mb 0.00 in0.0 mm 0.00 in0.0 mm 0.00 in0.0 mm
07:48 AM 81.0°F27.2°C 74.2°F23.4°C 80% 2.3 mph S3.7 kmh S 7.6 mph12.2 kmh 30.01 in1016.3 mb 0.00 in0.0 mm 0.00 in0.0 mm 0.00 in0.0 mm
07:45 AM 80.7°F27.1°C 74.3°F23.5°C 81% 1.9 mph S3.1 kmh S 2.5 mph4.0 kmh 30.01 in1016.3 mb 0.00 in0.0 mm 0.00 in0.0 mm 0.00 in0.0 mm
07:42 AM 80.4°F26.9°C 74.4°F23.6°C 82% 2.1 mph S3.4 kmh S 4.9 mph7.9 kmh 30.01 in1016.3 mb 0.00 in0.0 mm 0.00 in0.0 mm 0.00 in0.0 mm
07:39 AM 80.4°F26.9°C 74.4°F23.6°C 82% 3.2 mph SSE5.1 kmh SSE 4.9 mph7.9 kmh 30.01 in1016.3 mb 0.00 in0.0 mm 0.00 in0.0 mm 0.00 in0.0 mm
07:36 AM 80.4°F26.9°C 74.4°F23.6°C 82% 1.0 mph SSW1.6 kmh SSW 2.5 mph4.0 kmh 30.00 in1015.9 mb 0.00 in0.0 mm 0.00 in0.0 mm 0.00 in0.0 mm
07:33 AM 80.1°F26.7°C 74.1°F23.4°C 82% 2.1 mph SSE3.4 kmh SSE 7.6 mph12.2 kmh 30.00 in1015.9 mb 0.00 in0.0 mm 0.00 in0.0 mm 0.00 in0.0 mm
07:30 AM 79.7°F26.5°C 73.7°F23.2°C 82% 2.2 mph SSW3.5 kmh SSW 4.9 mph7.9 kmh 30.00 in1015.9 mb 0.00 in0.0 mm 0.00 in0.0 mm 0.00 in0.0 mm
07:27 AM 79.6°F26.4°C 73.6°F23.1°C 82% 3.2 mph S5.1 kmh S 4.9 mph7.9 kmh 30.00 in1015.9 mb 0.00 in0.0 mm 0.00 in0.0 mm 0.00 in0.0 mm
07:24 AM 79.5°F26.4°C 73.5°F23.1°C 82% 1.4 mph S2.3 kmh S 4.9 mph7.9 kmh 30.00 in1015.9 mb 0.00 in0.0 mm 0.00 in0.0 mm 0.00 in0.0 mm
07:21 AM 79.5°F26.4°C 73.5°F23.1°C 82% 1.9 mph S3.1 kmh S 4.9 mph7.9 kmh 30.01 in1016.3 mb 0.00 in0.0 mm 0.00 in0.0 mm 0.00 in0.0 mm
07:18 AM 79.5°F26.4°C 73.5°F23.1°C 82% 1.1 mph S1.8 kmh S 4.9 mph7.9 kmh 30.00 in1015.9 mb 0.00 in0.0 mm 0.00 in0.0 mm 0.00 in0.0 mm
07:15 AM 79.5°F26.4°C 73.5°F23.1°C 82% 3.3 mph SSE5.3 kmh SSE 4.9 mph7.9 kmh 30.00 in1015.9 mb 0.00 in0.0 mm 0.00 in0.0 mm 0.00 in0.0 mm
07:12 AM 79.5°F26.4°C 73.5°F23.1°C 82% 4.2 mph SSE6.8 kmh SSE 7.6 mph12.2 kmh 30.00 in1015.9 mb 0.00 in0.0 mm 0.00 in0.0 mm 0.00 in0.0 mm
07:09 AM 79.5°F26.4°C 73.5°F23.1°C 82% 1.8 mph SSE2.9 kmh SSE 4.9 mph7.9 kmh 30.00 in1015.9 mb 0.00 in0.0 mm 0.00 in0.0 mm 0.00 in0.0 mm
07:06 AM 79.5°F26.4°C 73.5°F23.1°C 82% 3.9 mph S6.3 kmh S 7.6 mph12.2 kmh 30.00 in1015.9 mb 0.00 in0.0 mm 0.00 in0.0 mm 0.00 in0.0 mm
07:03 AM 79.5°F26.4°C 73.5°F23.1°C 82% 3.0 mph S4.8 kmh S 7.6 mph12.2 kmh 30.00 in1015.9 mb 0.00 in0.0 mm 0.00 in0.0 mm 0.00 in0.0 mm
07:00 AM 79.5°F26.4°C 73.1°F22.8°C 81% 1.2 mph SSW1.9 kmh SSW 2.5 mph4.0 kmh 30.00 in1015.9 mb 0.00 in0.0 mm 0.00 in0.0 mm 0.00 in0.0 mm
06:57 AM 79.7°F26.5°C 73.3°F22.9°C 81% 1.6 mph S2.6 kmh S 2.5 mph4.0 kmh 30.00 in1015.9 mb 0.00 in0.0 mm 0.00 in0.0 mm 0.00 in0.0 mm
06:54 AM 79.7°F26.5°C 73.3°F22.9°C 81% 2.3 mph S3.7 kmh S 7.6 mph12.2 kmh 30.00 in1015.9 mb 0.00 in0.0 mm 0.00 in0.0 mm 0.00 in0.0 mm
06:51 AM 79.7°F26.5°C 73.3°F22.9°C 81% 1.1 mph S1.8 kmh S 2.5 mph4.0 kmh 30.00 in1015.9 mb 0.00 in0.0 mm 0.00 in0.0 mm 0.00 in0.0 mm
06:48 AM 79.7°F26.5°C 73.3°F22.9°C 81% 2.3 mph S3.7 kmh S 4.9 mph7.9 kmh 30.00 in1015.9 mb 0.00 in0.0 mm 0.00 in0.0 mm 0.00 in0.0 mm
06:45 AM 79.7°F26.5°C 73.3°F22.9°C 81% 1.6 mph SW2.6 kmh SW 4.9 mph7.9 kmh 30.00 in1015.9 mb 0.00 in0.0 mm 0.00 in0.0 mm 0.00 in0.0 mm
06:42 AM 79.7°F26.5°C 73.3°F22.9°C 81% 2.4 mph S3.9 kmh S 4.9 mph7.9 kmh 30.00 in1015.9 mb 0.00 in0.0 mm 0.00 in0.0 mm 0.00 in0.0 mm
06:39 AM 79.7°F26.5°C 73.3°F22.9°C 81% 1.3 mph SSW2.1 kmh SSW 2.5 mph4.0 kmh 30.00 in1015.9 mb 0.00 in0.0 mm 0.00 in0.0 mm 0.00 in0.0 mm
06:36 AM 79.7°F26.5°C 73.3°F22.9°C 81% 2.3 mph S3.7 kmh S 7.6 mph12.2 kmh 29.99 in1015.6 mb 0.00 in0.0 mm 0.00 in0.0 mm 0.00 in0.0 mm
06:33 AM 79.7°F26.5°C 73.0°F22.8°C 80% 1.9 mph S3.1 kmh S 4.9 mph7.9 kmh 29.99 in1015.6 mb 0.00 in0.0 mm 0.00 in0.0 mm 0.00 in0.0 mm
06:30 AM 79.7°F26.5°C 73.0°F22.8°C 80% 1.7 mph SSE2.7 kmh SSE 4.9 mph7.9 kmh 30.00 in1015.9 mb 0.00 in0.0 mm 0.00 in0.0 mm 0.00 in0.0 mm
06:27 AM 79.7°F26.5°C 73.0°F22.8°C 80% 0.6 mph S1.0 kmh S 2.5 mph4.0 kmh 30.00 in1015.9 mb 0.00 in0.0 mm 0.00 in0.0 mm 0.00 in0.0 mm
06:24 AM 79.9°F26.6°C 73.2°F22.9°C 80% 1.9 mph S3.1 kmh S 7.6 mph12.2 kmh 30.00 in1015.9 mb 0.00 in0.0 mm 0.00 in0.0 mm 0.00 in0.0 mm
06:21 AM 79.7°F26.5°C 73.0°F22.8°C 80% 3.0 mph SSE4.8 kmh SSE 7.6 mph12.2 kmh 30.00 in1015.9 mb 0.00 in0.0 mm 0.00 in0.0 mm 0.00 in0.0 mm
06:18 AM 79.7°F26.5°C 73.0°F22.8°C 80% 1.9 mph S3.1 kmh S 4.9 mph7.9 kmh 30.00 in1015.9 mb 0.00 in0.0 mm 0.00 in0.0 mm 0.00 in0.0 mm
06:15 AM 79.7°F26.5°C 73.0°F22.8°C 80% 2.2 mph S3.5 kmh S 4.9 mph7.9 kmh 30.00 in1015.9 mb 0.00 in0.0 mm 0.00 in0.0 mm 0.00 in0.0 mm
06:12 AM 79.7°F26.5°C 73.0°F22.8°C 80% 1.9 mph S3.1 kmh S 4.9 mph7.9 kmh 30.00 in1015.9 mb 0.00 in0.0 mm 0.00 in0.0 mm 0.00 in0.0 mm
06:09 AM 79.7°F26.5°C 72.6°F22.6°C 79% 3.9 mph S6.3 kmh S 7.6 mph12.2 kmh 29.99 in1015.6 mb 0.00 in0.0 mm 0.00 in0.0 mm 0.00 in0.0 mm
06:06 AM 79.7°F26.5°C 72.6°F22.6°C 79% 3.1 mph S5.0 kmh S 4.9 mph7.9 kmh 30.00 in1015.9 mb 0.00 in0.0 mm 0.00 in0.0 mm 0.00 in0.0 mm
06:03 AM 79.8°F26.6°C 72.7°F22.6°C 79% 3.3 mph S5.3 kmh S 10.1 mph16.3 kmh 30.00 in1015.9 mb 0.00 in0.0 mm 0.00 in0.0 mm 0.00 in0.0 mm
06:00 AM 80.0°F26.7°C 72.9°F22.7°C 79% 1.6 mph SSE2.6 kmh SSE 4.9 mph7.9 kmh 30.00 in1015.9 mb 0.00 in0.0 mm 0.00 in0.0 mm 0.00 in0.0 mm
05:57 AM 80.2°F26.8°C 73.1°F22.8°C 79% 4.3 mph SSE6.9 kmh SSE 4.9 mph7.9 kmh 29.99 in1015.6 mb 0.00 in0.0 mm 0.00 in0.0 mm 0.00 in0.0 mm
05:54 AM 80.4°F26.9°C 73.3°F22.9°C 79% 2.1 mph S3.4 kmh S 2.5 mph4.0 kmh 29.99 in1015.6 mb 0.00 in0.0 mm 0.00 in0.0 mm 0.00 in0.0 mm
05:51 AM 80.4°F26.9°C 73.3°F22.9°C 79% 3.1 mph SSE5.0 kmh SSE 4.9 mph7.9 kmh 29.99 in1015.6 mb 0.00 in0.0 mm 0.00 in0.0 mm 0.00 in0.0 mm
05:48 AM 80.4°F26.9°C 73.3°F22.9°C 79% 3.1 mph S5.0 kmh S 4.9 mph7.9 kmh 29.98 in1015.2 mb 0.00 in0.0 mm 0.00 in0.0 mm 0.00 in0.0 mm
05:45 AM 80.4°F26.9°C 73.3°F22.9°C 79% 4.4 mph S7.1 kmh S 7.6 mph12.2 kmh 29.98 in1015.2 mb 0.00 in0.0 mm 0.00 in0.0 mm 0.00 in0.0 mm
05:42 AM 80.4°F26.9°C 73.3°F22.9°C 79% 3.9 mph S6.3 kmh S 4.9 mph7.9 kmh 29.99 in1015.6 mb 0.00 in0.0 mm 0.00 in0.0 mm 0.00 in0.0 mm
05:39 AM 80.4°F26.9°C 73.3°F22.9°C 79% 4.0 mph SSE6.4 kmh SSE 7.6 mph12.2 kmh 29.98 in1015.2 mb 0.00 in0.0 mm 0.00 in0.0 mm 0.00 in0.0 mm
05:36 AM 80.4°F26.9°C 73.3°F22.9°C 79% 2.6 mph SSE4.2 kmh SSE 4.9 mph7.9 kmh 29.99 in1015.6 mb 0.00 in0.0 mm 0.00 in0.0 mm 0.00 in0.0 mm
05:33 AM 80.4°F26.9°C 73.1°F22.8°C 78% 4.4 mph S7.1 kmh S 7.6 mph12.2 kmh 29.98 in1015.2 mb 0.00 in0.0 mm 0.00 in0.0 mm 0.00 in0.0 mm
05:30 AM 80.6°F27.0°C 72.7°F22.6°C 77% 2.5 mph S4.0 kmh S 4.9 mph7.9 kmh 29.98 in1015.2 mb 0.00 in0.0 mm 0.00 in0.0 mm 0.00 in0.0 mm
05:27 AM 80.6°F27.0°C 72.8°F22.7°C 77% 3.6 mph SSE5.8 kmh SSE 7.6 mph12.2 kmh 29.98 in1015.2 mb 0.00 in0.0 mm 0.00 in0.0 mm 0.00 in0.0 mm
05:24 AM 80.6°F27.0°C 72.7°F22.6°C 77% 3.2 mph S5.1 kmh S 4.9 mph7.9 kmh 29.98 in1015.2 mb 0.00 in0.0 mm 0.00 in0.0 mm 0.00 in0.0 mm
05:21 AM 80.8°F27.1°C 72.9°F22.7°C 77% 4.0 mph SSE6.4 kmh SSE 7.6 mph12.2 kmh 29.98 in1015.2 mb 0.00 in0.0 mm 0.00 in0.0 mm 0.00 in0.0 mm
05:18 AM 80.8°F27.1°C 72.9°F22.7°C 77% 4.3 mph SE6.9 kmh SE 7.6 mph12.2 kmh 29.98 in1015.2 mb 0.00 in0.0 mm 0.00 in0.0 mm 0.00 in0.0 mm
05:15 AM 80.8°F27.1°C 72.6°F22.6°C 76% 1.6 mph S2.6 kmh S 4.9 mph7.9 kmh 29.98 in1015.2 mb 0.00 in0.0 mm 0.00 in0.0 mm 0.00 in0.0 mm
05:12 AM 80.8°F27.1°C 72.5°F22.5°C 76% 3.2 mph SSE5.1 kmh SSE 4.9 mph7.9 kmh 29.98 in1015.2 mb 0.00 in0.0 mm 0.00 in0.0 mm 0.00 in0.0 mm
05:09 AM 80.8°F27.1°C 72.5°F22.5°C 76% 1.7 mph S2.7 kmh S 4.9 mph7.9 kmh 29.98 in1015.2 mb 0.00 in0.0 mm 0.00 in0.0 mm 0.00 in0.0 mm
05:06 AM 80.9°F27.2°C 72.6°F22.6°C 76% 2.3 mph S3.7 kmh S 4.9 mph7.9 kmh 29.98 in1015.2 mb 0.00 in0.0 mm 0.00 in0.0 mm 0.00 in0.0 mm
05:03 AM 81.0°F27.2°C 72.7°F22.6°C 76% 2.0 mph SSE3.2 kmh SSE 4.9 mph7.9 kmh 29.98 in1015.2 mb 0.00 in0.0 mm 0.00 in0.0 mm 0.00 in0.0 mm
05:00 AM 81.1°F27.3°C 72.8°F22.7°C 76% 4.7 mph SSE7.6 kmh SSE 7.6 mph12.2 kmh 29.98 in1015.2 mb 0.00 in0.0 mm 0.00 in0.0 mm 0.00 in0.0 mm
04:57 AM 81.1°F27.3°C 72.8°F22.7°C 76% 3.4 mph SSE5.5 kmh SSE 4.9 mph7.9 kmh 29.98 in1015.2 mb 0.00 in0.0 mm 0.00 in0.0 mm 0.00 in0.0 mm
04:54 AM 81.1°F27.3°C 72.4°F22.4°C 75% 2.7 mph S4.3 kmh S 7.6 mph12.2 kmh 29.98 in1015.2 mb 0.00 in0.0 mm 0.00 in0.0 mm 0.00 in0.0 mm
04:51 AM 81.1°F27.3°C 72.4°F22.4°C 75% 2.5 mph SSE4.0 kmh SSE 7.6 mph12.2 kmh 29.98 in1015.2 mb 0.00 in0.0 mm 0.00 in0.0 mm 0.00 in0.0 mm
04:48 AM 81.2°F27.3°C 72.5°F22.5°C 75% 3.7 mph SSE6.0 kmh SSE 4.9 mph7.9 kmh 29.98 in1015.2 mb 0.00 in0.0 mm 0.00 in0.0 mm 0.00 in0.0 mm
04:45 AM 81.3°F27.4°C 72.6°F22.6°C 75% 2.2 mph SSE3.5 kmh SSE 4.9 mph7.9 kmh 29.98 in1015.2 mb 0.00 in0.0 mm 0.00 in0.0 mm 0.00 in0.0 mm
04:42 AM 81.3°F27.4°C 72.6°F22.6°C 75% 3.6 mph S5.8 kmh S 4.9 mph7.9 kmh 29.98 in1015.2 mb 0.00 in0.0 mm 0.00 in0.0 mm 0.00 in0.0 mm
04:39 AM 81.3°F27.4°C 72.4°F22.4°C 74% 2.8 mph S4.5 kmh S 7.6 mph12.2 kmh 29.98 in1015.2 mb 0.00 in0.0 mm 0.00 in0.0 mm 0.00 in0.0 mm
04:36 AM 81.5°F27.5°C 72.4°F22.4°C 74% 3.3 mph S5.3 kmh S 4.9 mph7.9 kmh 29.98 in1015.2 mb 0.00 in0.0 mm 0.00 in0.0 mm 0.00 in0.0 mm
04:33 AM 81.7°F27.6°C 72.6°F22.6°C 74% 2.9 mph S4.7 kmh S 7.6 mph12.2 kmh 29.98 in1015.2 mb 0.00 in0.0 mm 0.00 in0.0 mm 0.00 in0.0 mm
04:30 AM 81.7°F27.6°C 72.6°F22.6°C 74% 5.1 mph SSE8.2 kmh SSE 7.6 mph12.2 kmh 29.98 in1015.2 mb 0.00 in0.0 mm 0.00 in0.0 mm 0.00 in0.0 mm
04:27 AM 81.9°F27.7°C 72.7°F22.6°C 74% 4.5 mph S7.2 kmh S 7.6 mph12.2 kmh 29.98 in1015.2 mb 0.00 in0.0 mm 0.00 in0.0 mm 0.00 in0.0 mm
04:24 AM 81.9°F27.7°C 72.8°F22.7°C 74% 3.5 mph SSE5.6 kmh SSE 4.9 mph7.9 kmh 29.97 in1014.9 mb 0.00 in0.0 mm 0.00 in0.0 mm 0.00 in0.0 mm
04:21 AM 81.9°F27.7°C 72.6°F22.6°C 74% 1.5 mph S2.4 kmh S 4.9 mph7.9 kmh 29.97 in1014.9 mb 0.00 in0.0 mm 0.00 in0.0 mm 0.00 in0.0 mm
04:18 AM 81.9°F27.7°C 72.4°F22.4°C 73% 3.7 mph S6.0 kmh S 4.9 mph7.9 kmh 29.97 in1014.9 mb 0.00 in0.0 mm 0.00 in0.0 mm 0.00 in0.0 mm
04:15 AM 81.9°F27.7°C 72.4°F22.4°C 73% 2.6 mph SW4.2 kmh SW 7.6 mph12.2 kmh 29.98 in1015.2 mb 0.00 in0.0 mm 0.00 in0.0 mm 0.00 in0.0 mm
04:12 AM 81.9°F27.7°C 72.4°F22.4°C 73% 4.2 mph S6.8 kmh S 7.6 mph12.2 kmh 29.97 in1014.9 mb 0.00 in0.0 mm 0.00 in0.0 mm 0.00 in0.0 mm
04:09 AM 81.9°F27.7°C 72.4°F22.4°C 73% 2.8 mph S4.5 kmh S 4.9 mph7.9 kmh 29.97 in1014.9 mb 0.00 in0.0 mm 0.00 in0.0 mm 0.00 in0.0 mm
04:06 AM 81.9°F27.7°C 72.4°F22.4°C 73% 4.5 mph SSE7.2 kmh SSE 10.1 mph16.3 kmh 29.96 in1014.6 mb 0.00 in0.0 mm 0.00 in0.0 mm 0.00 in0.0 mm
04:03 AM 81.9°F27.7°C 72.4°F22.4°C 73% 1.8 mph SSE2.9 kmh SSE 7.6 mph12.2 kmh 29.96 in1014.6 mb 0.00 in0.0 mm 0.00 in0.0 mm 0.00 in0.0 mm
04:00 AM 82.2°F27.9°C 72.6°F22.6°C 73% 4.0 mph S6.4 kmh S 7.6 mph12.2 kmh 29.96 in1014.6 mb 0.00 in0.0 mm 0.00 in0.0 mm 0.00 in0.0 mm
03:57 AM 82.2°F27.9°C 72.7°F22.6°C 73% 4.2 mph SSE6.8 kmh SSE 7.6 mph12.2 kmh 29.96 in1014.6 mb 0.00 in0.0 mm 0.00 in0.0 mm 0.00 in0.0 mm
03:54 AM 82.2°F27.9°C 72.7°F22.6°C 73% 2.8 mph S4.5 kmh S 4.9 mph7.9 kmh 29.97 in1014.9 mb 0.00 in0.0 mm 0.00 in0.0 mm 0.00 in0.0 mm
03:51 AM 82.2°F27.9°C 72.7°F22.6°C 73% 4.9 mph S7.9 kmh S 7.6 mph12.2 kmh 29.97 in1014.9 mb 0.00 in0.0 mm 0.00 in0.0 mm 0.00 in0.0 mm
03:48 AM 82.2°F27.9°C 72.7°F22.6°C 73% 3.3 mph SSE5.3 kmh SSE 4.9 mph7.9 kmh 29.96 in1014.6 mb 0.00 in0.0 mm 0.00 in0.0 mm 0.00 in0.0 mm
03:45 AM 82.2°F27.9°C 72.7°F22.6°C 73% 5.2 mph SSE8.4 kmh SSE 10.1 mph16.3 kmh 29.96 in1014.6 mb 0.00 in0.0 mm 0.00 in0.0 mm 0.00 in0.0 mm
03:42 AM 82.2°F27.9°C 72.3°F22.4°C 72% 2.2 mph S3.5 kmh S 7.6 mph12.2 kmh 29.96 in1014.6 mb 0.00 in0.0 mm 0.00 in0.0 mm 0.00 in0.0 mm
03:39 AM 82.2°F27.9°C 72.3°F22.4°C 72% 3.1 mph SE5.0 kmh SE 4.9 mph7.9 kmh 29.96 in1014.6 mb 0.00 in0.0 mm 0.00 in0.0 mm 0.00 in0.0 mm
03:36 AM 82.2°F27.9°C 72.3°F22.4°C 72% 3.4 mph SW5.5 kmh SW 7.6 mph12.2 kmh 29.96 in1014.6 mb 0.00 in0.0 mm 0.00 in0.0 mm 0.00 in0.0 mm
03:33 AM 82.2°F27.9°C 72.3°F22.4°C 72% 4.1 mph S6.6 kmh S 7.6 mph12.2 kmh 29.96 in1014.6 mb 0.00 in0.0 mm 0.00 in0.0 mm 0.00 in0.0 mm
03:30 AM 82.2°F27.9°C 72.4°F22.4°C 72% 2.1 mph SSW3.4 kmh SSW 4.9 mph7.9 kmh 29.96 in1014.6 mb 0.00 in0.0 mm 0.00 in0.0 mm 0.00 in0.0 mm
03:27 AM 82.4°F28.0°C 72.5°F22.5°C 72% 2.6 mph S4.2 kmh S 7.6 mph12.2 kmh 29.96 in1014.6 mb 0.00 in0.0 mm 0.00 in0.0 mm 0.00 in0.0 mm
03:24 AM 82.4°F28.0°C 72.4°F22.4°C 72% 4.4 mph SSE7.1 kmh SSE 7.6 mph12.2 kmh 29.96 in1014.6 mb 0.00 in0.0 mm 0.00 in0.0 mm 0.00 in0.0 mm
03:21 AM 82.5°F28.1°C 72.5°F22.5°C 72% 2.3 mph S3.7 kmh S 4.9 mph7.9 kmh 29.96 in1014.6 mb 0.00 in0.0 mm 0.00 in0.0 mm 0.00 in0.0 mm
03:18 AM 82.5°F28.1°C 72.6°F22.6°C 72% 1.1 mph S1.8 kmh S 4.9 mph7.9 kmh 29.96 in1014.6 mb 0.00 in0.0 mm 0.00 in0.0 mm 0.00 in0.0 mm
03:15 AM 82.7°F28.2°C 72.7°F22.6°C 72% 0.3 mph SSW0.5 kmh SSW 2.5 mph4.0 kmh 29.96 in1014.6 mb 0.00 in0.0 mm 0.00 in0.0 mm 0.00 in0.0 mm
03:12 AM 82.6°F28.1°C 72.6°F22.6°C 72% 3.4 mph S5.5 kmh S 10.1 mph16.3 kmh 29.96 in1014.6 mb 0.00 in0.0 mm 0.00 in0.0 mm 0.00 in0.0 mm
03:09 AM 82.6°F28.1°C 72.6°F22.6°C 72% 0.6 mph S1.0 kmh S 2.5 mph4.0 kmh 29.96 in1014.6 mb 0.00 in0.0 mm 0.00 in0.0 mm 0.00 in0.0 mm
03:06 AM 82.8°F28.2°C 72.8°F22.7°C 72% 2.1 mph S3.4 kmh S 4.9 mph7.9 kmh 29.95 in1014.2 mb 0.00 in0.0 mm 0.00 in0.0 mm 0.00 in0.0 mm
03:03 AM 82.8°F28.2°C 72.8°F22.7°C 72% 0.5 mph SW0.8 kmh SW 2.5 mph4.0 kmh 29.96 in1014.6 mb 0.00 in0.0 mm 0.00 in0.0 mm 0.00 in0.0 mm
03:00 AM 82.8°F28.2°C 72.8°F22.7°C 72% 3.8 mph SSW6.1 kmh SSW 7.6 mph12.2 kmh 29.95 in1014.2 mb 0.00 in0.0 mm 0.00 in0.0 mm 0.00 in0.0 mm
02:57 AM 82.8°F28.2°C 72.8°F22.7°C 72% 0.4 mph WSW0.6 kmh WSW 2.5 mph4.0 kmh 29.96 in1014.6 mb 0.00 in0.0 mm 0.00 in0.0 mm 0.00 in0.0 mm
02:54 AM 82.8°F28.2°C 72.8°F22.7°C 72% 1.1 mph S1.8 kmh S 4.9 mph7.9 kmh 29.96 in1014.6 mb 0.00 in0.0 mm 0.00 in0.0 mm 0.00 in0.0 mm
02:51 AM 82.8°F28.2°C 72.8°F22.7°C 72% 3.5 mph S5.6 kmh S 4.9 mph7.9 kmh 29.96 in1014.6 mb 0.00 in0.0 mm 0.00 in0.0 mm 0.00 in0.0 mm
02:48 AM 82.8°F28.2°C 72.8°F22.7°C 72% 3.6 mph SSW5.8 kmh SSW 4.9 mph7.9 kmh 29.96 in1014.6 mb 0.00 in0.0 mm 0.00 in0.0 mm 0.00 in0.0 mm
02:45 AM 82.8°F28.2°C 72.8°F22.7°C 72% 2.4 mph S3.9 kmh S 4.9 mph7.9 kmh 29.96 in1014.6 mb 0.00 in0.0 mm 0.00 in0.0 mm 0.00 in0.0 mm
02:42 AM 82.8°F28.2°C 72.8°F22.7°C 72% 3.0 mph S4.8 kmh S 4.9 mph7.9 kmh 29.96 in1014.6 mb 0.00 in0.0 mm 0.00 in0.0 mm 0.00 in0.0 mm
02:39 AM 82.9°F28.3°C 72.6°F22.6°C 71% 2.9 mph S4.7 kmh S 4.9 mph7.9 kmh 29.96 in1014.6 mb 0.00 in0.0 mm 0.00 in0.0 mm 0.00 in0.0 mm
02:36 AM 82.8°F28.2°C 72.4°F22.4°C 71% 4.7 mph S7.6 kmh S 10.1 mph16.3 kmh 29.97 in1014.9 mb 0.00 in0.0 mm 0.00 in0.0 mm 0.00 in0.0 mm
02:33 AM 82.9°F28.3°C 72.5°F22.5°C 71% 5.0 mph SSE8.0 kmh SSE 10.1 mph16.3 kmh 29.97 in1014.9 mb 0.00 in0.0 mm 0.00 in0.0 mm 0.00 in0.0 mm
02:30 AM 83.1°F28.4°C 72.7°F22.6°C 71% 5.0 mph SSE8.0 kmh SSE 7.6 mph12.2 kmh 29.97 in1014.9 mb 0.00 in0.0 mm 0.00 in0.0 mm 0.00 in0.0 mm
02:27 AM 83.1°F28.4°C 72.7°F22.6°C 71% 4.9 mph S7.9 kmh S 10.1 mph16.3 kmh 29.97 in1014.9 mb 0.00 in0.0 mm 0.00 in0.0 mm 0.00 in0.0 mm
02:24 AM 83.1°F28.4°C 72.7°F22.6°C 71% 3.2 mph S5.1 kmh S 4.9 mph7.9 kmh 29.97 in1014.9 mb 0.00 in0.0 mm 0.00 in0.0 mm 0.00 in0.0 mm
02:21 AM 83.1°F28.4°C 72.4°F22.4°C 70% 2.7 mph S4.3 kmh S 10.1 mph16.3 kmh 29.97 in1014.9 mb 0.00 in0.0 mm 0.00 in0.0 mm 0.00 in0.0 mm
02:18 AM 83.3°F28.5°C 72.5°F22.5°C 70% 4.7 mph SW7.6 kmh SW 12.5 mph20.1 kmh 29.97 in1014.9 mb 0.00 in0.0 mm 0.00 in0.0 mm 0.00 in0.0 mm
02:15 AM 83.3°F28.5°C 72.5°F22.5°C 70% 5.4 mph S8.7 kmh S 7.6 mph12.2 kmh 29.97 in1014.9 mb 0.00 in0.0 mm 0.00 in0.0 mm 0.00 in0.0 mm
02:12 AM 83.3°F28.5°C 72.5°F22.5°C 70% 4.7 mph S7.6 kmh S 10.1 mph16.3 kmh 29.97 in1014.9 mb 0.00 in0.0 mm 0.00 in0.0 mm 0.00 in0.0 mm
02:09 AM 83.5°F28.6°C 72.7°F22.6°C 70% 4.8 mph SSE7.7 kmh SSE 7.6 mph12.2 kmh 29.97 in1014.9 mb 0.00 in0.0 mm 0.00 in0.0 mm 0.00 in0.0 mm
02:06 AM 83.5°F28.6°C 72.7°F22.6°C 70% 5.4 mph SSE8.7 kmh SSE 7.6 mph12.2 kmh 29.97 in1014.9 mb 0.00 in0.0 mm 0.00 in0.0 mm 0.00 in0.0 mm
02:03 AM 83.5°F28.6°C 72.7°F22.6°C 70% 5.8 mph S9.3 kmh S 10.1 mph16.3 kmh 29.97 in1014.9 mb 0.00 in0.0 mm 0.00 in0.0 mm 0.00 in0.0 mm
02:00 AM 83.5°F28.6°C 72.7°F22.6°C 70% 4.3 mph SSE6.9 kmh SSE 7.6 mph12.2 kmh 29.97 in1014.9 mb 0.00 in0.0 mm 0.00 in0.0 mm 0.00 in0.0 mm
01:57 AM 83.5°F28.6°C 72.7°F22.6°C 70% 3.8 mph SSE6.1 kmh SSE 7.6 mph12.2 kmh 29.97 in1014.9 mb 0.00 in0.0 mm 0.00 in0.0 mm 0.00 in0.0 mm
01:54 AM 83.5°F28.6°C 72.3°F22.4°C 69% 3.3 mph S5.3 kmh S 12.5 mph20.1 kmh 29.97 in1014.9 mb 0.00 in0.0 mm 0.00 in0.0 mm 0.00 in0.0 mm
01:51 AM 83.5°F28.6°C 72.2°F22.3°C 69% 2.8 mph S4.5 kmh S 4.9 mph7.9 kmh 29.98 in1015.2 mb 0.00 in0.0 mm 0.00 in0.0 mm 0.00 in0.0 mm
01:48 AM 83.7°F28.7°C 72.4°F22.4°C 69% 3.4 mph SSE5.5 kmh SSE 7.6 mph12.2 kmh 29.97 in1014.9 mb 0.00 in0.0 mm 0.00 in0.0 mm 0.00 in0.0 mm
01:45 AM 83.8°F28.8°C 72.5°F22.5°C 69% 2.8 mph S4.5 kmh S 7.6 mph12.2 kmh 29.97 in1014.9 mb 0.00 in0.0 mm 0.00 in0.0 mm 0.00 in0.0 mm
01:42 AM 83.8°F28.8°C 72.5°F22.5°C 69% 6.4 mph SE10.3 kmh SE 10.1 mph16.3 kmh 29.97 in1014.9 mb 0.00 in0.0 mm 0.00 in0.0 mm 0.00 in0.0 mm
01:39 AM 83.8°F28.8°C 72.5°F22.5°C 69% 4.0 mph SSE6.4 kmh SSE 7.6 mph12.2 kmh 29.97 in1014.9 mb 0.00 in0.0 mm 0.00 in0.0 mm 0.00 in0.0 mm
01:36 AM 83.8°F28.8°C 72.5°F22.5°C 69% 3.5 mph SSE5.6 kmh SSE 7.6 mph12.2 kmh 29.98 in1015.2 mb 0.00 in0.0 mm 0.00 in0.0 mm 0.00 in0.0 mm
01:33 AM 84.0°F28.9°C 72.2°F22.3°C 68% 3.3 mph SSE5.3 kmh SSE 7.6 mph12.2 kmh 29.98 in1015.2 mb 0.00 in0.0 mm 0.00 in0.0 mm 0.00 in0.0 mm
01:30 AM 84.0°F28.9°C 72.3°F22.4°C 68% 7.1 mph SSE11.4 kmh SSE 12.5 mph20.1 kmh 29.97 in1014.9 mb 0.00 in0.0 mm 0.00 in0.0 mm 0.00 in0.0 mm
01:27 AM 84.2°F29.0°C 72.0°F22.2°C 67% 2.7 mph SSE4.3 kmh SSE 4.9 mph7.9 kmh 29.98 in1015.2 mb 0.00 in0.0 mm 0.00 in0.0 mm 0.00 in0.0 mm
01:24 AM 84.2°F29.0°C 72.0°F22.2°C 67% 5.3 mph SSE8.5 kmh SSE 12.5 mph20.1 kmh 29.98 in1015.2 mb 0.00 in0.0 mm 0.00 in0.0 mm 0.00 in0.0 mm
01:21 AM 84.4°F29.1°C 71.7°F22.1°C 66% 5.3 mph SSE8.5 kmh SSE 10.1 mph16.3 kmh 29.98 in1015.2 mb 0.00 in0.0 mm 0.00 in0.0 mm 0.00 in0.0 mm
01:18 AM 84.4°F29.1°C 71.8°F22.1°C 66% 5.2 mph SE8.4 kmh SE 7.6 mph12.2 kmh 29.98 in1015.2 mb 0.00 in0.0 mm 0.00 in0.0 mm 0.00 in0.0 mm
01:15 AM 84.4°F29.1°C 71.8°F22.1°C 66% 5.0 mph SSE8.0 kmh SSE 10.1 mph16.3 kmh 29.98 in1015.2 mb 0.00 in0.0 mm 0.00 in0.0 mm 0.00 in0.0 mm
01:12 AM 84.4°F29.1°C 71.8°F22.1°C 66% 4.1 mph SSE6.6 kmh SSE 4.9 mph7.9 kmh 29.97 in1014.9 mb 0.00 in0.0 mm 0.00 in0.0 mm 0.00 in0.0 mm
01:09 AM 84.6°F29.2°C 71.6°F22.0°C 65% 3.9 mph SE6.3 kmh SE 7.6 mph12.2 kmh 29.98 in1015.2 mb 0.00 in0.0 mm 0.00 in0.0 mm 0.00 in0.0 mm
01:06 AM 84.7°F29.3°C 71.6°F22.0°C 65% 6.6 mph SE10.6 kmh SE 10.1 mph16.3 kmh 29.98 in1015.2 mb 0.00 in0.0 mm 0.00 in0.0 mm 0.00 in0.0 mm
01:03 AM 84.7°F29.3°C 71.6°F22.0°C 65% 5.5 mph S8.9 kmh S 12.5 mph20.1 kmh 29.98 in1015.2 mb 0.00 in0.0 mm 0.00 in0.0 mm 0.00 in0.0 mm
01:00 AM 84.7°F29.3°C 71.6°F22.0°C 65% 5.4 mph S8.7 kmh S 10.1 mph16.3 kmh 29.98 in1015.2 mb 0.00 in0.0 mm 0.00 in0.0 mm 0.00 in0.0 mm
12:57 AM 84.7°F29.3°C 71.6°F22.0°C 65% 3.7 mph S6.0 kmh S 4.9 mph7.9 kmh 29.98 in1015.2 mb 0.00 in0.0 mm 0.00 in0.0 mm 0.00 in0.0 mm
12:54 AM 85.1°F29.5°C 71.5°F21.9°C 64% 3.8 mph S6.1 kmh S 7.6 mph12.2 kmh 29.98 in1015.2 mb 0.00 in0.0 mm 0.00 in0.0 mm 0.00 in0.0 mm
12:51 AM 85.1°F29.5°C 71.5°F21.9°C 64% 5.7 mph SSE9.2 kmh SSE 12.5 mph20.1 kmh 29.98 in1015.2 mb 0.00 in0.0 mm 0.00 in0.0 mm 0.00 in0.0 mm
12:48 AM 85.1°F29.5°C 71.5°F21.9°C 64% 8.6 mph S13.8 kmh S 15.0 mph24.1 kmh 29.98 in1015.2 mb 0.00 in0.0 mm 0.00 in0.0 mm 0.00 in0.0 mm
12:45 AM 85.1°F29.5°C 71.6°F22.0°C 64% 3.7 mph SSE6.0 kmh SSE 7.6 mph12.2 kmh 29.98 in1015.2 mb 0.00 in0.0 mm 0.00 in0.0 mm 0.00 in0.0 mm
12:42 AM 85.4°F29.7°C 71.5°F21.9°C 63% 4.7 mph SSE7.6 kmh SSE 10.1 mph16.3 kmh 29.98 in1015.2 mb 0.00 in0.0 mm 0.00 in0.0 mm 0.00 in0.0 mm
12:39 AM 85.2°F29.6°C 71.3°F21.8°C 63% 11.1 mph SSE17.9 kmh SSE 15.0 mph24.1 kmh 29.99 in1015.6 mb 0.00 in0.0 mm 0.00 in0.0 mm 0.00 in0.0 mm
12:36 AM 85.3°F29.6°C 71.2°F21.8°C 63% 4.2 mph SE6.8 kmh SE 7.6 mph12.2 kmh 29.98 in1015.2 mb 0.00 in0.0 mm 0.00 in0.0 mm 0.00 in0.0 mm
12:33 AM 85.3°F29.6°C 71.2°F21.8°C 63% 6.4 mph S10.3 kmh S 10.1 mph16.3 kmh 29.98 in1015.2 mb 0.00 in0.0 mm 0.00 in0.0 mm 0.00 in0.0 mm
12:30 AM 85.5°F29.7°C 71.4°F21.9°C 63% 3.3 mph SE5.3 kmh SE 4.9 mph7.9 kmh 29.98 in1015.2 mb 0.00 in0.0 mm 0.00 in0.0 mm 0.00 in0.0 mm
12:27 AM 85.5°F29.7°C 71.4°F21.9°C 63% 3.9 mph SE6.3 kmh SE 10.1 mph16.3 kmh 29.98 in1015.2 mb 0.00 in0.0 mm 0.00 in0.0 mm 0.00 in0.0 mm
12:24 AM 85.6°F29.8°C 71.2°F21.8°C 62% 3.4 mph ESE5.5 kmh ESE 4.9 mph7.9 kmh 29.98 in1015.2 mb 0.00 in0.0 mm 0.00 in0.0 mm 0.00 in0.0 mm
12:21 AM 85.8°F29.9°C 71.2°F21.8°C 62% 6.2 mph SE10.0 kmh SE 10.1 mph16.3 kmh 29.98 in1015.2 mb 0.00 in0.0 mm 0.00 in0.0 mm 0.00 in0.0 mm
12:18 AM 85.8°F29.9°C 71.2°F21.8°C 62% 5.2 mph SE8.4 kmh SE 7.6 mph12.2 kmh 29.98 in1015.2 mb 0.00 in0.0 mm 0.00 in0.0 mm 0.00 in0.0 mm
12:15 AM 86.0°F30.0°C 71.0°F21.7°C 61% 7.9 mph SSE12.7 kmh SSE 12.5 mph20.1 kmh 29.98 in1015.2 mb 0.00 in0.0 mm 0.00 in0.0 mm 0.00 in0.0 mm
12:12 AM 86.2°F30.1°C 70.7°F21.5°C 60% 5.4 mph SE8.7 kmh SE 7.6 mph12.2 kmh 29.98 in1015.2 mb 0.00 in0.0 mm 0.00 in0.0 mm 0.00 in0.0 mm
12:09 AM 86.2°F30.1°C 70.7°F21.5°C 60% 7.4 mph S11.9 kmh S 15.0 mph24.1 kmh 29.98 in1015.2 mb 0.00 in0.0 mm 0.00 in0.0 mm 0.00 in0.0 mm
12:06 AM 86.4°F30.2°C 70.9°F21.6°C 60% 6.2 mph S10.0 kmh S 12.5 mph20.1 kmh 29.98 in1015.2 mb 0.00 in0.0 mm 0.00 in0.0 mm 0.00 in0.0 mm
12:03 AM 86.5°F30.3°C 70.9°F21.6°C 60% 6.0 mph SSE9.7 kmh SSE 10.1 mph16.3 kmh 29.98 in1015.2 mb 0.00 in0.0 mm 0.00 in0.0 mm 0.00 in0.0 mm
12:00 AM 86.5°F30.3°C 70.7°F21.5°C 60% 7.1 mph SE11.4 kmh SE 10.1 mph16.3 kmh 29.98 in1015.2 mb 0.00 in0.0 mm 0.00 in0.0 mm 0.00 in0.0 mm